<?xml version="1.0" encoding="UTF-8" standalone="no" ?>
<gpx xmlns="http://www.topografix.com/GPX/1/1" xmlns:xsi="http://www.w3.org/2001/XMLSchema-instance" xsi:schemaLocation="http://www.topografix.com/GPX/1/1 http://www.topografix.com/GPX/1/1/gpx.xsd" version="1.1" creator="VisuGPX - https://www.visugpx.com">
  <metadata>
    <name>Le Mantois, d'Orgerus à Nezel (78)</name>
    <desc><![CDATA[Randonnée en ligne de 23km à partir de la gare d'Orgerus. Retour par la gare de Nézel.]]></desc>
  </metadata>
  <wpt lat="48.82678" lon="1.7026">
    <ele>134.18</ele>
    <name><![CDATA[0000156]]></name>
    <type><![CDATA[Point de départ]]></type>
  </wpt>
  <wpt lat="48.82678" lon="1.7026">
    <ele>134.18</ele>
    <name><![CDATA[0000156]]></name>
    <type><![CDATA[Point de départ]]></type>
  </wpt>
  <wpt lat="48.93883" lon="1.84061">
    <ele>36.98</ele>
    <name><![CDATA[0000158]]></name>
    <desc><![CDATA[<p><br /><h3>Nom: Segment: 1</h3><br />Heure de départ: 09:48 14 juil. 2019<br/>Heure d'arrivée: 16:01 14 juil. 2019<br/>Distance: 22,7km (06:13)<br/>Temps déplacement: 04:52<br/>Vitesse moyenne: 3,65 km/h<br/>Vitesse moyenne mouv.: 4,64 km/h<br/>Vitesse Max.: 8,55 km/h<br/>Altitude minimale: 31 m<br/>Altitude maximale: 173 m<br/>Vitesse de montée: 127,4 m/h<br/>Vitesse de descente: -176,6 m/h<br/>Gain d'altitude: 404 m<br/>Perte d'altitude: -502 m<br/>Temps de montée: 03:10<br/>Temps de descente: 02:50<br/></p>]]></desc>
    <type><![CDATA[Point d'arrivée]]></type>
  </wpt>
  <trk>
    <name><![CDATA[2019-07-14 09:48]]></name>
    <desc><![CDATA[<p>Heure de départ: 09:48 14 juil. 2019<br/>Heure d'arrivée: 16:01 14 juil. 2019<br/>Distance: 22,7 km (06:13)<br/>Temps déplacement: 04:52<br/>Vitesse moyenne: 3,65 km/h<br/>Vitesse moyenne mouv.: 4,65 km/h<br/>Vitesse Max.: 8,55 km/h<br/>Altitude minimale: 31 m<br/>Altitude maximale: 173 m<br/>Vitesse de montée: 116,2 m/h<br/>Vitesse de descente: -161,9 m/h<br/>Gain d'altitude: 366 m<br/>Perte d'altitude: -464 m<br/>Temps de montée: 03:09<br/>Temps de descente: 02:52<br/></p><hr align="center" width="480" style="height: 2px; width: 517px"/>]]></desc>
    <trkseg>
      <trkpt lat="48.82678" lon="1.7026">
        <ele>134.18</ele>
        <time>2019-07-14T07:48:31.000Z</time>
      </trkpt>
      <trkpt lat="48.82693" lon="1.70278">
        <ele>135.35</ele>
        <time>2019-07-14T07:49:16.000Z</time>
      </trkpt>
      <trkpt lat="48.82697" lon="1.70251">
        <ele>132.4</ele>
        <time>2019-07-14T07:49:30.000Z</time>
      </trkpt>
      <trkpt lat="48.82701" lon="1.70222">
        <ele>131.36</ele>
        <time>2019-07-14T07:49:43.000Z</time>
      </trkpt>
      <trkpt lat="48.82707" lon="1.70196">
        <ele>131.91</ele>
        <time>2019-07-14T07:49:57.000Z</time>
      </trkpt>
      <trkpt lat="48.82716" lon="1.7017">
        <ele>133.44</ele>
        <time>2019-07-14T07:50:10.000Z</time>
      </trkpt>
      <trkpt lat="48.82723" lon="1.70143">
        <ele>134.55</ele>
        <time>2019-07-14T07:50:25.000Z</time>
      </trkpt>
      <trkpt lat="48.82742" lon="1.70141">
        <ele>135.35</ele>
        <time>2019-07-14T07:50:42.000Z</time>
      </trkpt>
      <trkpt lat="48.8276" lon="1.70151">
        <ele>133.97</ele>
        <time>2019-07-14T07:50:51.000Z</time>
      </trkpt>
      <trkpt lat="48.82777" lon="1.70162">
        <ele>130.82</ele>
        <time>2019-07-14T07:51:07.000Z</time>
      </trkpt>
      <trkpt lat="48.82794" lon="1.70173">
        <ele>126.76</ele>
        <time>2019-07-14T07:51:24.000Z</time>
      </trkpt>
      <trkpt lat="48.82812" lon="1.70185">
        <ele>124.86</ele>
        <time>2019-07-14T07:51:40.000Z</time>
      </trkpt>
      <trkpt lat="48.82828" lon="1.70197">
        <ele>123.62</ele>
        <time>2019-07-14T07:51:50.000Z</time>
      </trkpt>
      <trkpt lat="48.82845" lon="1.70207">
        <ele>122.17</ele>
        <time>2019-07-14T07:52:05.000Z</time>
      </trkpt>
      <trkpt lat="48.82863" lon="1.70221">
        <ele>122.68</ele>
        <time>2019-07-14T07:52:18.000Z</time>
      </trkpt>
      <trkpt lat="48.82883" lon="1.70228">
        <ele>122.84</ele>
        <time>2019-07-14T07:52:47.000Z</time>
      </trkpt>
      <trkpt lat="48.82884" lon="1.70258">
        <ele>124.21</ele>
        <time>2019-07-14T07:53:31.000Z</time>
      </trkpt>
      <trkpt lat="48.82876" lon="1.70282">
        <ele>126.87</ele>
        <time>2019-07-14T07:54:16.000Z</time>
      </trkpt>
      <trkpt lat="48.82871" lon="1.7031">
        <ele>126.48</ele>
        <time>2019-07-14T07:54:35.000Z</time>
      </trkpt>
      <trkpt lat="48.8288" lon="1.70336">
        <ele>125.62</ele>
        <time>2019-07-14T07:54:51.000Z</time>
      </trkpt>
      <trkpt lat="48.82897" lon="1.70352">
        <ele>124.81</ele>
        <time>2019-07-14T07:55:05.000Z</time>
      </trkpt>
      <trkpt lat="48.82913" lon="1.7037">
        <ele>123.98</ele>
        <time>2019-07-14T07:55:22.000Z</time>
      </trkpt>
      <trkpt lat="48.82927" lon="1.70391">
        <ele>123.84</ele>
        <time>2019-07-14T07:55:33.000Z</time>
      </trkpt>
      <trkpt lat="48.8294" lon="1.70411">
        <ele>121.93</ele>
        <time>2019-07-14T07:55:55.000Z</time>
      </trkpt>
      <trkpt lat="48.8296" lon="1.70415">
        <ele>121.39</ele>
        <time>2019-07-14T07:56:05.000Z</time>
      </trkpt>
      <trkpt lat="48.82976" lon="1.70429">
        <ele>122.35</ele>
        <time>2019-07-14T07:56:18.000Z</time>
      </trkpt>
      <trkpt lat="48.82993" lon="1.70441">
        <ele>121.65</ele>
        <time>2019-07-14T07:56:32.000Z</time>
      </trkpt>
      <trkpt lat="48.83012" lon="1.70451">
        <ele>119.3</ele>
        <time>2019-07-14T07:56:46.000Z</time>
      </trkpt>
      <trkpt lat="48.8303" lon="1.70456">
        <ele>119.18</ele>
        <time>2019-07-14T07:56:55.000Z</time>
      </trkpt>
      <trkpt lat="48.83047" lon="1.70467">
        <ele>119.84</ele>
        <time>2019-07-14T07:57:12.999Z</time>
      </trkpt>
      <trkpt lat="48.83064" lon="1.70483">
        <ele>118.77</ele>
        <time>2019-07-14T07:57:32.999Z</time>
      </trkpt>
      <trkpt lat="48.83083" lon="1.70487">
        <ele>118.27</ele>
        <time>2019-07-14T07:57:44.999Z</time>
      </trkpt>
      <trkpt lat="48.831" lon="1.70495">
        <ele>117.83</ele>
        <time>2019-07-14T07:57:56.999Z</time>
      </trkpt>
      <trkpt lat="48.83119" lon="1.70499">
        <ele>116.16</ele>
        <time>2019-07-14T07:58:12.999Z</time>
      </trkpt>
      <trkpt lat="48.83136" lon="1.70513">
        <ele>116.17</ele>
        <time>2019-07-14T07:58:22.999Z</time>
      </trkpt>
      <trkpt lat="48.83152" lon="1.70526">
        <ele>117.18</ele>
        <time>2019-07-14T07:58:38.999Z</time>
      </trkpt>
      <trkpt lat="48.8317" lon="1.70533">
        <ele>115.86</ele>
        <time>2019-07-14T07:58:55.999Z</time>
      </trkpt>
      <trkpt lat="48.83187" lon="1.70545">
        <ele>114.41</ele>
        <time>2019-07-14T07:59:10.999Z</time>
      </trkpt>
      <trkpt lat="48.83205" lon="1.70554">
        <ele>112.36</ele>
        <time>2019-07-14T07:59:25.999Z</time>
      </trkpt>
      <trkpt lat="48.83222" lon="1.7056">
        <ele>109.7</ele>
        <time>2019-07-14T07:59:42.999Z</time>
      </trkpt>
      <trkpt lat="48.8324" lon="1.70569">
        <ele>106.87</ele>
        <time>2019-07-14T07:59:58.999Z</time>
      </trkpt>
      <trkpt lat="48.83257" lon="1.7058">
        <ele>105.1</ele>
        <time>2019-07-14T08:00:12.999Z</time>
      </trkpt>
      <trkpt lat="48.83274" lon="1.70591">
        <ele>104.98</ele>
        <time>2019-07-14T08:00:26.999Z</time>
      </trkpt>
      <trkpt lat="48.83292" lon="1.70597">
        <ele>104.88</ele>
        <time>2019-07-14T08:00:37.999Z</time>
      </trkpt>
      <trkpt lat="48.8331" lon="1.70609">
        <ele>105.63</ele>
        <time>2019-07-14T08:00:50.999Z</time>
      </trkpt>
      <trkpt lat="48.83327" lon="1.70617">
        <ele>105.43</ele>
        <time>2019-07-14T08:01:07.999Z</time>
      </trkpt>
      <trkpt lat="48.83344" lon="1.70631">
        <ele>105.85</ele>
        <time>2019-07-14T08:01:32.999Z</time>
      </trkpt>
      <trkpt lat="48.83362" lon="1.7064">
        <ele>104.38</ele>
        <time>2019-07-14T08:01:47.999Z</time>
      </trkpt>
      <trkpt lat="48.8338" lon="1.70647">
        <ele>103.46</ele>
        <time>2019-07-14T08:01:59.999Z</time>
      </trkpt>
      <trkpt lat="48.83398" lon="1.70653">
        <ele>103.05</ele>
        <time>2019-07-14T08:02:12.999Z</time>
      </trkpt>
      <trkpt lat="48.83415" lon="1.70667">
        <ele>101.26</ele>
        <time>2019-07-14T08:02:32.999Z</time>
      </trkpt>
      <trkpt lat="48.83431" lon="1.7068">
        <ele>99.05</ele>
        <time>2019-07-14T08:02:51.999Z</time>
      </trkpt>
      <trkpt lat="48.83448" lon="1.70691">
        <ele>98.1</ele>
        <time>2019-07-14T08:03:08.999Z</time>
      </trkpt>
      <trkpt lat="48.83466" lon="1.70697">
        <ele>99.59</ele>
        <time>2019-07-14T08:03:32.999Z</time>
      </trkpt>
      <trkpt lat="48.83483" lon="1.70707">
        <ele>100.96</ele>
        <time>2019-07-14T08:03:46.999Z</time>
      </trkpt>
      <trkpt lat="48.83499" lon="1.70721">
        <ele>100.27</ele>
        <time>2019-07-14T08:04:04.999Z</time>
      </trkpt>
      <trkpt lat="48.83516" lon="1.7073">
        <ele>98.85</ele>
        <time>2019-07-14T08:04:20.999Z</time>
      </trkpt>
      <trkpt lat="48.83534" lon="1.70739">
        <ele>96.9</ele>
        <time>2019-07-14T08:04:35.999Z</time>
      </trkpt>
      <trkpt lat="48.83551" lon="1.70751">
        <ele>94.11</ele>
        <time>2019-07-14T08:04:50.999Z</time>
      </trkpt>
      <trkpt lat="48.8357" lon="1.7075">
        <ele>93.08</ele>
        <time>2019-07-14T08:04:59.999Z</time>
      </trkpt>
      <trkpt lat="48.83589" lon="1.70748">
        <ele>94.25</ele>
        <time>2019-07-14T08:05:08.999Z</time>
      </trkpt>
      <trkpt lat="48.83607" lon="1.70753">
        <ele>95.98</ele>
        <time>2019-07-14T08:05:23.999Z</time>
      </trkpt>
      <trkpt lat="48.83625" lon="1.70762">
        <ele>96.39</ele>
        <time>2019-07-14T08:05:38.999Z</time>
      </trkpt>
      <trkpt lat="48.83643" lon="1.70763">
        <ele>97.97</ele>
        <time>2019-07-14T08:06:06.999Z</time>
      </trkpt>
      <trkpt lat="48.83662" lon="1.70769">
        <ele>97.43</ele>
        <time>2019-07-14T08:06:19.999Z</time>
      </trkpt>
      <trkpt lat="48.83678" lon="1.70786">
        <ele>95.88</ele>
        <time>2019-07-14T08:06:38.999Z</time>
      </trkpt>
      <trkpt lat="48.83696" lon="1.70791">
        <ele>94.33</ele>
        <time>2019-07-14T08:06:50.999Z</time>
      </trkpt>
      <trkpt lat="48.83715" lon="1.70801">
        <ele>94.04</ele>
        <time>2019-07-14T08:07:03.999Z</time>
      </trkpt>
      <trkpt lat="48.83734" lon="1.70808">
        <ele>94.5</ele>
        <time>2019-07-14T08:07:17.999Z</time>
      </trkpt>
      <trkpt lat="48.83751" lon="1.70816">
        <ele>94.43</ele>
        <time>2019-07-14T08:07:30.999Z</time>
      </trkpt>
      <trkpt lat="48.83768" lon="1.70828">
        <ele>93.67</ele>
        <time>2019-07-14T08:07:44.999Z</time>
      </trkpt>
      <trkpt lat="48.83786" lon="1.70843">
        <ele>91.95</ele>
        <time>2019-07-14T08:08:02.999Z</time>
      </trkpt>
      <trkpt lat="48.83804" lon="1.70852">
        <ele>93.14</ele>
        <time>2019-07-14T08:08:12.999Z</time>
      </trkpt>
      <trkpt lat="48.83822" lon="1.70866">
        <ele>94.78</ele>
        <time>2019-07-14T08:08:29.999Z</time>
      </trkpt>
      <trkpt lat="48.83835" lon="1.70885">
        <ele>94.58</ele>
        <time>2019-07-14T08:08:49.999Z</time>
      </trkpt>
      <trkpt lat="48.83853" lon="1.70903">
        <ele>92.45</ele>
        <time>2019-07-14T08:09:04.999Z</time>
      </trkpt>
      <trkpt lat="48.8387" lon="1.70919">
        <ele>92.19</ele>
        <time>2019-07-14T08:09:18.999Z</time>
      </trkpt>
      <trkpt lat="48.83886" lon="1.70931">
        <ele>92.29</ele>
        <time>2019-07-14T08:09:30.999Z</time>
      </trkpt>
      <trkpt lat="48.83902" lon="1.70947">
        <ele>92.33</ele>
        <time>2019-07-14T08:09:48.999Z</time>
      </trkpt>
      <trkpt lat="48.83917" lon="1.70963">
        <ele>91.16</ele>
        <time>2019-07-14T08:10:04.999Z</time>
      </trkpt>
      <trkpt lat="48.83932" lon="1.70978">
        <ele>89.72</ele>
        <time>2019-07-14T08:10:17.999Z</time>
      </trkpt>
      <trkpt lat="48.8395" lon="1.70991">
        <ele>89.21</ele>
        <time>2019-07-14T08:10:30.999Z</time>
      </trkpt>
      <trkpt lat="48.83968" lon="1.71002">
        <ele>90.65</ele>
        <time>2019-07-14T08:10:41.999Z</time>
      </trkpt>
      <trkpt lat="48.83985" lon="1.71014">
        <ele>92.92</ele>
        <time>2019-07-14T08:10:56.999Z</time>
      </trkpt>
      <trkpt lat="48.84001" lon="1.71025">
        <ele>92.54</ele>
        <time>2019-07-14T08:11:13.999Z</time>
      </trkpt>
      <trkpt lat="48.84018" lon="1.71037">
        <ele>92.58</ele>
        <time>2019-07-14T08:11:24.999Z</time>
      </trkpt>
      <trkpt lat="48.84038" lon="1.71046">
        <ele>93.54</ele>
        <time>2019-07-14T08:11:39.999Z</time>
      </trkpt>
      <trkpt lat="48.84054" lon="1.71057">
        <ele>92.55</ele>
        <time>2019-07-14T08:12:02.999Z</time>
      </trkpt>
      <trkpt lat="48.84072" lon="1.7106">
        <ele>92.17</ele>
        <time>2019-07-14T08:12:19.000Z</time>
      </trkpt>
      <trkpt lat="48.84092" lon="1.71066">
        <ele>91.83</ele>
        <time>2019-07-14T08:12:40.000Z</time>
      </trkpt>
      <trkpt lat="48.84109" lon="1.71074">
        <ele>91.09</ele>
        <time>2019-07-14T08:12:54.000Z</time>
      </trkpt>
      <trkpt lat="48.84128" lon="1.7108">
        <ele>91.84</ele>
        <time>2019-07-14T08:13:10.000Z</time>
      </trkpt>
      <trkpt lat="48.84146" lon="1.71086">
        <ele>92.07</ele>
        <time>2019-07-14T08:13:23.000Z</time>
      </trkpt>
      <trkpt lat="48.84164" lon="1.71091">
        <ele>93.23</ele>
        <time>2019-07-14T08:13:35.000Z</time>
      </trkpt>
      <trkpt lat="48.84183" lon="1.71099">
        <ele>93.72</ele>
        <time>2019-07-14T08:13:53.000Z</time>
      </trkpt>
      <trkpt lat="48.842" lon="1.71104">
        <ele>93.95</ele>
        <time>2019-07-14T08:14:04.000Z</time>
      </trkpt>
      <trkpt lat="48.84218" lon="1.71112">
        <ele>94.77</ele>
        <time>2019-07-14T08:14:14.000Z</time>
      </trkpt>
      <trkpt lat="48.84232" lon="1.7113">
        <ele>95.78</ele>
        <time>2019-07-14T08:14:36.000Z</time>
      </trkpt>
      <trkpt lat="48.84249" lon="1.71141">
        <ele>95.38</ele>
        <time>2019-07-14T08:14:52.000Z</time>
      </trkpt>
      <trkpt lat="48.84266" lon="1.71156">
        <ele>95.47</ele>
        <time>2019-07-14T08:15:08.000Z</time>
      </trkpt>
      <trkpt lat="48.84281" lon="1.71172">
        <ele>95.11</ele>
        <time>2019-07-14T08:15:23.000Z</time>
      </trkpt>
      <trkpt lat="48.84293" lon="1.71193">
        <ele>94.22</ele>
        <time>2019-07-14T08:15:40.000Z</time>
      </trkpt>
      <trkpt lat="48.84311" lon="1.71207">
        <ele>93.5</ele>
        <time>2019-07-14T08:15:54.000Z</time>
      </trkpt>
      <trkpt lat="48.84326" lon="1.71223">
        <ele>93.8</ele>
        <time>2019-07-14T08:16:09.000Z</time>
      </trkpt>
      <trkpt lat="48.84344" lon="1.7123">
        <ele>95.64</ele>
        <time>2019-07-14T08:16:24.000Z</time>
      </trkpt>
      <trkpt lat="48.84361" lon="1.71242">
        <ele>96.58</ele>
        <time>2019-07-14T08:16:42.000Z</time>
      </trkpt>
      <trkpt lat="48.84378" lon="1.71255">
        <ele>96.76</ele>
        <time>2019-07-14T08:17:00.000Z</time>
      </trkpt>
      <trkpt lat="48.84394" lon="1.71265">
        <ele>95.7</ele>
        <time>2019-07-14T08:17:17.000Z</time>
      </trkpt>
      <trkpt lat="48.84412" lon="1.71272">
        <ele>95.09</ele>
        <time>2019-07-14T08:17:29.000Z</time>
      </trkpt>
      <trkpt lat="48.84431" lon="1.71283">
        <ele>95.96</ele>
        <time>2019-07-14T08:17:43.000Z</time>
      </trkpt>
      <trkpt lat="48.84448" lon="1.7129">
        <ele>96.55</ele>
        <time>2019-07-14T08:18:03.000Z</time>
      </trkpt>
      <trkpt lat="48.84467" lon="1.71297">
        <ele>97.64</ele>
        <time>2019-07-14T08:18:15.000Z</time>
      </trkpt>
      <trkpt lat="48.84486" lon="1.71299">
        <ele>98.47</ele>
        <time>2019-07-14T08:18:32.000Z</time>
      </trkpt>
      <trkpt lat="48.84504" lon="1.71303">
        <ele>99.06</ele>
        <time>2019-07-14T08:19:21.000Z</time>
      </trkpt>
      <trkpt lat="48.84523" lon="1.71305">
        <ele>100.32</ele>
        <time>2019-07-14T08:19:31.000Z</time>
      </trkpt>
      <trkpt lat="48.84539" lon="1.71316">
        <ele>101.87</ele>
        <time>2019-07-14T08:19:51.000Z</time>
      </trkpt>
      <trkpt lat="48.84558" lon="1.71316">
        <ele>102.69</ele>
        <time>2019-07-14T08:20:05.000Z</time>
      </trkpt>
      <trkpt lat="48.84575" lon="1.71311">
        <ele>105.23</ele>
        <time>2019-07-14T08:20:54.000Z</time>
      </trkpt>
      <trkpt lat="48.84595" lon="1.71314">
        <ele>105.87</ele>
        <time>2019-07-14T08:21:12.000Z</time>
      </trkpt>
      <trkpt lat="48.84613" lon="1.71312">
        <ele>105.17</ele>
        <time>2019-07-14T08:21:36.000Z</time>
      </trkpt>
      <trkpt lat="48.84632" lon="1.7131">
        <ele>104.28</ele>
        <time>2019-07-14T08:21:45.000Z</time>
      </trkpt>
      <trkpt lat="48.84651" lon="1.7131">
        <ele>101.78</ele>
        <time>2019-07-14T08:22:06.000Z</time>
      </trkpt>
      <trkpt lat="48.84669" lon="1.71319">
        <ele>97.74</ele>
        <time>2019-07-14T08:22:30.000Z</time>
      </trkpt>
      <trkpt lat="48.84688" lon="1.7132">
        <ele>93.93</ele>
        <time>2019-07-14T08:22:45.000Z</time>
      </trkpt>
      <trkpt lat="48.84706" lon="1.71319">
        <ele>90.98</ele>
        <time>2019-07-14T08:23:00.000Z</time>
      </trkpt>
      <trkpt lat="48.84727" lon="1.71319">
        <ele>90.41</ele>
        <time>2019-07-14T08:23:09.000Z</time>
      </trkpt>
      <trkpt lat="48.84747" lon="1.71326">
        <ele>91.84</ele>
        <time>2019-07-14T08:23:27.000Z</time>
      </trkpt>
      <trkpt lat="48.84764" lon="1.71338">
        <ele>92.56</ele>
        <time>2019-07-14T08:23:44.000Z</time>
      </trkpt>
      <trkpt lat="48.84782" lon="1.7134">
        <ele>93.48</ele>
        <time>2019-07-14T08:23:58.000Z</time>
      </trkpt>
      <trkpt lat="48.84801" lon="1.71345">
        <ele>99.99</ele>
        <time>2019-07-14T08:26:11.000Z</time>
      </trkpt>
      <trkpt lat="48.84818" lon="1.71351">
        <ele>97.84</ele>
        <time>2019-07-14T08:26:30.000Z</time>
      </trkpt>
      <trkpt lat="48.84835" lon="1.71364">
        <ele>94.2</ele>
        <time>2019-07-14T08:26:48.000Z</time>
      </trkpt>
      <trkpt lat="48.84851" lon="1.7138">
        <ele>91.95</ele>
        <time>2019-07-14T08:27:02.000Z</time>
      </trkpt>
      <trkpt lat="48.84868" lon="1.71397">
        <ele>90.63</ele>
        <time>2019-07-14T08:27:15.000Z</time>
      </trkpt>
      <trkpt lat="48.84883" lon="1.71416">
        <ele>90.38</ele>
        <time>2019-07-14T08:27:30.999Z</time>
      </trkpt>
      <trkpt lat="48.84899" lon="1.71432">
        <ele>90.94</ele>
        <time>2019-07-14T08:27:47.999Z</time>
      </trkpt>
      <trkpt lat="48.84916" lon="1.71446">
        <ele>91.63</ele>
        <time>2019-07-14T08:27:57.999Z</time>
      </trkpt>
      <trkpt lat="48.84933" lon="1.71458">
        <ele>92.36</ele>
        <time>2019-07-14T08:28:13.999Z</time>
      </trkpt>
      <trkpt lat="48.8495" lon="1.71468">
        <ele>92.56</ele>
        <time>2019-07-14T08:28:30.999Z</time>
      </trkpt>
      <trkpt lat="48.84969" lon="1.7148">
        <ele>92.03</ele>
        <time>2019-07-14T08:28:45.999Z</time>
      </trkpt>
      <trkpt lat="48.84985" lon="1.71493">
        <ele>92.6</ele>
        <time>2019-07-14T08:28:57.999Z</time>
      </trkpt>
      <trkpt lat="48.85004" lon="1.71498">
        <ele>93.87</ele>
        <time>2019-07-14T08:29:16.999Z</time>
      </trkpt>
      <trkpt lat="48.85022" lon="1.71503">
        <ele>94.11</ele>
        <time>2019-07-14T08:29:32.999Z</time>
      </trkpt>
      <trkpt lat="48.8504" lon="1.7151">
        <ele>94.23</ele>
        <time>2019-07-14T08:29:46.999Z</time>
      </trkpt>
      <trkpt lat="48.85058" lon="1.71515">
        <ele>95.01</ele>
        <time>2019-07-14T08:30:01.999Z</time>
      </trkpt>
      <trkpt lat="48.85076" lon="1.7152">
        <ele>95.18</ele>
        <time>2019-07-14T08:30:17.999Z</time>
      </trkpt>
      <trkpt lat="48.85094" lon="1.71523">
        <ele>94.42</ele>
        <time>2019-07-14T08:30:36.999Z</time>
      </trkpt>
      <trkpt lat="48.85114" lon="1.7153">
        <ele>93.41</ele>
        <time>2019-07-14T08:30:51.999Z</time>
      </trkpt>
      <trkpt lat="48.85132" lon="1.71534">
        <ele>92.68</ele>
        <time>2019-07-14T08:31:09.999Z</time>
      </trkpt>
      <trkpt lat="48.8515" lon="1.71529">
        <ele>90.91</ele>
        <time>2019-07-14T08:31:29.999Z</time>
      </trkpt>
      <trkpt lat="48.85168" lon="1.71531">
        <ele>89.37</ele>
        <time>2019-07-14T08:31:42.999Z</time>
      </trkpt>
      <trkpt lat="48.85187" lon="1.71534">
        <ele>88.74</ele>
        <time>2019-07-14T08:31:53.999Z</time>
      </trkpt>
      <trkpt lat="48.85205" lon="1.71525">
        <ele>89.03</ele>
        <time>2019-07-14T08:32:06.999Z</time>
      </trkpt>
      <trkpt lat="48.85223" lon="1.71528">
        <ele>89.18</ele>
        <time>2019-07-14T08:32:25.999Z</time>
      </trkpt>
      <trkpt lat="48.85242" lon="1.71531">
        <ele>88.06</ele>
        <time>2019-07-14T08:32:42.999Z</time>
      </trkpt>
      <trkpt lat="48.8526" lon="1.7153">
        <ele>87.06</ele>
        <time>2019-07-14T08:33:01.999Z</time>
      </trkpt>
      <trkpt lat="48.85276" lon="1.71547">
        <ele>85.91</ele>
        <time>2019-07-14T08:33:15.999Z</time>
      </trkpt>
      <trkpt lat="48.85294" lon="1.71543">
        <ele>87.39</ele>
        <time>2019-07-14T08:33:36.999Z</time>
      </trkpt>
      <trkpt lat="48.85312" lon="1.71533">
        <ele>85.45</ele>
        <time>2019-07-14T08:34:53.999Z</time>
      </trkpt>
      <trkpt lat="48.85331" lon="1.71528">
        <ele>89.27</ele>
        <time>2019-07-14T08:36:10.999Z</time>
      </trkpt>
      <trkpt lat="48.85349" lon="1.71524">
        <ele>90.83</ele>
        <time>2019-07-14T08:36:19.999Z</time>
      </trkpt>
      <trkpt lat="48.85367" lon="1.71518">
        <ele>92.2</ele>
        <time>2019-07-14T08:36:35.999Z</time>
      </trkpt>
      <trkpt lat="48.85387" lon="1.71507">
        <ele>93.28</ele>
        <time>2019-07-14T08:36:43.999Z</time>
      </trkpt>
      <trkpt lat="48.85402" lon="1.71493">
        <ele>98.73</ele>
        <time>2019-07-14T08:37:17.999Z</time>
      </trkpt>
      <trkpt lat="48.85417" lon="1.71474">
        <ele>99.77</ele>
        <time>2019-07-14T08:37:36.999Z</time>
      </trkpt>
      <trkpt lat="48.85432" lon="1.71459">
        <ele>100.68</ele>
        <time>2019-07-14T08:37:46.999Z</time>
      </trkpt>
      <trkpt lat="48.85448" lon="1.71445">
        <ele>103.28</ele>
        <time>2019-07-14T08:38:04.999Z</time>
      </trkpt>
      <trkpt lat="48.85464" lon="1.71432">
        <ele>104.11</ele>
        <time>2019-07-14T08:38:18.999Z</time>
      </trkpt>
      <trkpt lat="48.8548" lon="1.71419">
        <ele>103.95</ele>
        <time>2019-07-14T08:38:33.999Z</time>
      </trkpt>
      <trkpt lat="48.85494" lon="1.71402">
        <ele>103.98</ele>
        <time>2019-07-14T08:38:45.999Z</time>
      </trkpt>
      <trkpt lat="48.8551" lon="1.71384">
        <ele>104.37</ele>
        <time>2019-07-14T08:38:58.999Z</time>
      </trkpt>
      <trkpt lat="48.85525" lon="1.71368">
        <ele>104.45</ele>
        <time>2019-07-14T08:39:13.999Z</time>
      </trkpt>
      <trkpt lat="48.85541" lon="1.71352">
        <ele>105.5</ele>
        <time>2019-07-14T08:39:30.999Z</time>
      </trkpt>
      <trkpt lat="48.85555" lon="1.71333">
        <ele>106.6</ele>
        <time>2019-07-14T08:39:43.999Z</time>
      </trkpt>
      <trkpt lat="48.8557" lon="1.71315">
        <ele>107.42</ele>
        <time>2019-07-14T08:39:55.999Z</time>
      </trkpt>
      <trkpt lat="48.85584" lon="1.71298">
        <ele>109.04</ele>
        <time>2019-07-14T08:40:12.999Z</time>
      </trkpt>
      <trkpt lat="48.856" lon="1.71285">
        <ele>109.21</ele>
        <time>2019-07-14T08:40:25.999Z</time>
      </trkpt>
      <trkpt lat="48.85615" lon="1.71265">
        <ele>109.14</ele>
        <time>2019-07-14T08:40:38.999Z</time>
      </trkpt>
      <trkpt lat="48.85627" lon="1.71243">
        <ele>109.05</ele>
        <time>2019-07-14T08:40:53.999Z</time>
      </trkpt>
      <trkpt lat="48.85642" lon="1.71226">
        <ele>109.19</ele>
        <time>2019-07-14T08:41:10.999Z</time>
      </trkpt>
      <trkpt lat="48.85661" lon="1.71221">
        <ele>109.73</ele>
        <time>2019-07-14T08:41:26.999Z</time>
      </trkpt>
      <trkpt lat="48.85679" lon="1.71213">
        <ele>110.19</ele>
        <time>2019-07-14T08:41:38.999Z</time>
      </trkpt>
      <trkpt lat="48.85698" lon="1.71206">
        <ele>110.89</ele>
        <time>2019-07-14T08:41:53.999Z</time>
      </trkpt>
      <trkpt lat="48.85715" lon="1.71197">
        <ele>112.26</ele>
        <time>2019-07-14T08:42:13.999Z</time>
      </trkpt>
      <trkpt lat="48.85734" lon="1.71189">
        <ele>113.44</ele>
        <time>2019-07-14T08:42:29.999Z</time>
      </trkpt>
      <trkpt lat="48.85754" lon="1.71184">
        <ele>114.63</ele>
        <time>2019-07-14T08:42:45.000Z</time>
      </trkpt>
      <trkpt lat="48.85771" lon="1.71173">
        <ele>115.32</ele>
        <time>2019-07-14T08:43:01.000Z</time>
      </trkpt>
      <trkpt lat="48.85789" lon="1.71166">
        <ele>113.44</ele>
        <time>2019-07-14T08:43:22.000Z</time>
      </trkpt>
      <trkpt lat="48.85808" lon="1.71156">
        <ele>112.61</ele>
        <time>2019-07-14T08:43:33.000Z</time>
      </trkpt>
      <trkpt lat="48.85815" lon="1.71129">
        <ele>111.28</ele>
        <time>2019-07-14T08:44:01.000Z</time>
      </trkpt>
      <trkpt lat="48.85831" lon="1.71114">
        <ele>109.56</ele>
        <time>2019-07-14T08:44:18.000Z</time>
      </trkpt>
      <trkpt lat="48.85843" lon="1.71092">
        <ele>109.06</ele>
        <time>2019-07-14T08:44:33.000Z</time>
      </trkpt>
      <trkpt lat="48.85855" lon="1.7107">
        <ele>108.63</ele>
        <time>2019-07-14T08:44:45.000Z</time>
      </trkpt>
      <trkpt lat="48.85864" lon="1.71046">
        <ele>107.97</ele>
        <time>2019-07-14T08:45:02.000Z</time>
      </trkpt>
      <trkpt lat="48.85873" lon="1.71021">
        <ele>107.87</ele>
        <time>2019-07-14T08:45:24.000Z</time>
      </trkpt>
      <trkpt lat="48.85887" lon="1.71002">
        <ele>108.05</ele>
        <time>2019-07-14T08:45:53.000Z</time>
      </trkpt>
      <trkpt lat="48.85903" lon="1.70988">
        <ele>108.56</ele>
        <time>2019-07-14T08:46:04.000Z</time>
      </trkpt>
      <trkpt lat="48.85915" lon="1.70963">
        <ele>107.85</ele>
        <time>2019-07-14T08:46:19.000Z</time>
      </trkpt>
      <trkpt lat="48.85929" lon="1.70942">
        <ele>105.07</ele>
        <time>2019-07-14T08:46:39.000Z</time>
      </trkpt>
      <trkpt lat="48.85945" lon="1.70931">
        <ele>101.91</ele>
        <time>2019-07-14T08:46:51.000Z</time>
      </trkpt>
      <trkpt lat="48.85962" lon="1.70914">
        <ele>99.36</ele>
        <time>2019-07-14T08:47:00.000Z</time>
      </trkpt>
      <trkpt lat="48.85979" lon="1.70903">
        <ele>98.3</ele>
        <time>2019-07-14T08:47:12.000Z</time>
      </trkpt>
      <trkpt lat="48.85995" lon="1.70891">
        <ele>99.77</ele>
        <time>2019-07-14T08:47:26.000Z</time>
      </trkpt>
      <trkpt lat="48.86012" lon="1.70878">
        <ele>102.4</ele>
        <time>2019-07-14T08:47:42.000Z</time>
      </trkpt>
      <trkpt lat="48.86028" lon="1.70862">
        <ele>104.91</ele>
        <time>2019-07-14T08:47:58.000Z</time>
      </trkpt>
      <trkpt lat="48.86045" lon="1.70851">
        <ele>107.71</ele>
        <time>2019-07-14T08:48:18.000Z</time>
      </trkpt>
      <trkpt lat="48.86056" lon="1.70873">
        <ele>108.07</ele>
        <time>2019-07-14T08:48:36.000Z</time>
      </trkpt>
      <trkpt lat="48.86063" lon="1.709">
        <ele>108.16</ele>
        <time>2019-07-14T08:48:57.000Z</time>
      </trkpt>
      <trkpt lat="48.86069" lon="1.70928">
        <ele>108</ele>
        <time>2019-07-14T08:49:13.000Z</time>
      </trkpt>
      <trkpt lat="48.86073" lon="1.70955">
        <ele>108.39</ele>
        <time>2019-07-14T08:49:25.000Z</time>
      </trkpt>
      <trkpt lat="48.8608" lon="1.70983">
        <ele>108.16</ele>
        <time>2019-07-14T08:49:40.000Z</time>
      </trkpt>
      <trkpt lat="48.86086" lon="1.71009">
        <ele>107.84</ele>
        <time>2019-07-14T08:50:00.000Z</time>
      </trkpt>
      <trkpt lat="48.86092" lon="1.71035">
        <ele>108.29</ele>
        <time>2019-07-14T08:50:15.000Z</time>
      </trkpt>
      <trkpt lat="48.86099" lon="1.71063">
        <ele>108.7</ele>
        <time>2019-07-14T08:50:27.000Z</time>
      </trkpt>
      <trkpt lat="48.86104" lon="1.71089">
        <ele>109.14</ele>
        <time>2019-07-14T08:50:38.000Z</time>
      </trkpt>
      <trkpt lat="48.8611" lon="1.71116">
        <ele>109.01</ele>
        <time>2019-07-14T08:50:55.000Z</time>
      </trkpt>
      <trkpt lat="48.8612" lon="1.71139">
        <ele>108.72</ele>
        <time>2019-07-14T08:51:57.000Z</time>
      </trkpt>
      <trkpt lat="48.86127" lon="1.71165">
        <ele>107.98</ele>
        <time>2019-07-14T08:52:13.000Z</time>
      </trkpt>
      <trkpt lat="48.86139" lon="1.71188">
        <ele>107.63</ele>
        <time>2019-07-14T08:52:29.000Z</time>
      </trkpt>
      <trkpt lat="48.86144" lon="1.71215">
        <ele>107.09</ele>
        <time>2019-07-14T08:52:44.000Z</time>
      </trkpt>
      <trkpt lat="48.86155" lon="1.71237">
        <ele>106.74</ele>
        <time>2019-07-14T08:52:59.000Z</time>
      </trkpt>
      <trkpt lat="48.86167" lon="1.71261">
        <ele>106.47</ele>
        <time>2019-07-14T08:53:16.000Z</time>
      </trkpt>
      <trkpt lat="48.8618" lon="1.7128">
        <ele>106.49</ele>
        <time>2019-07-14T08:53:32.000Z</time>
      </trkpt>
      <trkpt lat="48.86195" lon="1.71296">
        <ele>107.21</ele>
        <time>2019-07-14T08:53:45.000Z</time>
      </trkpt>
      <trkpt lat="48.8621" lon="1.71314">
        <ele>109.33</ele>
        <time>2019-07-14T08:54:06.000Z</time>
      </trkpt>
      <trkpt lat="48.86226" lon="1.71329">
        <ele>110.23</ele>
        <time>2019-07-14T08:54:16.000Z</time>
      </trkpt>
      <trkpt lat="48.86238" lon="1.71352">
        <ele>111.5</ele>
        <time>2019-07-14T08:54:33.000Z</time>
      </trkpt>
      <trkpt lat="48.86238" lon="1.71382">
        <ele>111.71</ele>
        <time>2019-07-14T08:54:44.000Z</time>
      </trkpt>
      <trkpt lat="48.86235" lon="1.7141">
        <ele>112.83</ele>
        <time>2019-07-14T08:54:59.000Z</time>
      </trkpt>
      <trkpt lat="48.86232" lon="1.71437">
        <ele>114.38</ele>
        <time>2019-07-14T08:55:18.000Z</time>
      </trkpt>
      <trkpt lat="48.86227" lon="1.71464">
        <ele>114.08</ele>
        <time>2019-07-14T08:55:35.000Z</time>
      </trkpt>
      <trkpt lat="48.86221" lon="1.7149">
        <ele>112.91</ele>
        <time>2019-07-14T08:55:50.000Z</time>
      </trkpt>
      <trkpt lat="48.86214" lon="1.71516">
        <ele>112.05</ele>
        <time>2019-07-14T08:56:03.000Z</time>
      </trkpt>
      <trkpt lat="48.86209" lon="1.71545">
        <ele>112.36</ele>
        <time>2019-07-14T08:56:16.000Z</time>
      </trkpt>
      <trkpt lat="48.8622" lon="1.71567">
        <ele>114.79</ele>
        <time>2019-07-14T08:56:34.000Z</time>
      </trkpt>
      <trkpt lat="48.86234" lon="1.71589">
        <ele>116.85</ele>
        <time>2019-07-14T08:56:51.000Z</time>
      </trkpt>
      <trkpt lat="48.86247" lon="1.71608">
        <ele>117.84</ele>
        <time>2019-07-14T08:57:04.000Z</time>
      </trkpt>
      <trkpt lat="48.86259" lon="1.7163">
        <ele>118.74</ele>
        <time>2019-07-14T08:57:21.000Z</time>
      </trkpt>
      <trkpt lat="48.86274" lon="1.71646">
        <ele>117.65</ele>
        <time>2019-07-14T08:58:23.999Z</time>
      </trkpt>
      <trkpt lat="48.86286" lon="1.71667">
        <ele>115.03</ele>
        <time>2019-07-14T08:59:03.999Z</time>
      </trkpt>
      <trkpt lat="48.86302" lon="1.71688">
        <ele>115.01</ele>
        <time>2019-07-14T08:59:15.999Z</time>
      </trkpt>
      <trkpt lat="48.86313" lon="1.71709">
        <ele>116.4</ele>
        <time>2019-07-14T09:00:05.999Z</time>
      </trkpt>
      <trkpt lat="48.86324" lon="1.71733">
        <ele>117.68</ele>
        <time>2019-07-14T09:00:50.999Z</time>
      </trkpt>
      <trkpt lat="48.86334" lon="1.71756">
        <ele>117.54</ele>
        <time>2019-07-14T09:01:06.999Z</time>
      </trkpt>
      <trkpt lat="48.86348" lon="1.71773">
        <ele>117.93</ele>
        <time>2019-07-14T09:01:17.999Z</time>
      </trkpt>
      <trkpt lat="48.86361" lon="1.71795">
        <ele>117.84</ele>
        <time>2019-07-14T09:02:32.999Z</time>
      </trkpt>
      <trkpt lat="48.86373" lon="1.71816">
        <ele>117.45</ele>
        <time>2019-07-14T09:03:01.999Z</time>
      </trkpt>
      <trkpt lat="48.86384" lon="1.71839">
        <ele>118.95</ele>
        <time>2019-07-14T09:03:23.999Z</time>
      </trkpt>
      <trkpt lat="48.86393" lon="1.71862">
        <ele>120.62</ele>
        <time>2019-07-14T09:03:42.999Z</time>
      </trkpt>
      <trkpt lat="48.86405" lon="1.71884">
        <ele>121.59</ele>
        <time>2019-07-14T09:03:56.999Z</time>
      </trkpt>
      <trkpt lat="48.86415" lon="1.71907">
        <ele>123.33</ele>
        <time>2019-07-14T09:04:14.999Z</time>
      </trkpt>
      <trkpt lat="48.86422" lon="1.71933">
        <ele>124.93</ele>
        <time>2019-07-14T09:04:31.999Z</time>
      </trkpt>
      <trkpt lat="48.8643" lon="1.71959">
        <ele>126.45</ele>
        <time>2019-07-14T09:04:48.999Z</time>
      </trkpt>
      <trkpt lat="48.86442" lon="1.7198">
        <ele>128.57</ele>
        <time>2019-07-14T09:05:03.999Z</time>
      </trkpt>
      <trkpt lat="48.86452" lon="1.72003">
        <ele>130.71</ele>
        <time>2019-07-14T09:05:23.999Z</time>
      </trkpt>
      <trkpt lat="48.86463" lon="1.72025">
        <ele>130.85</ele>
        <time>2019-07-14T09:05:38.999Z</time>
      </trkpt>
      <trkpt lat="48.86476" lon="1.72045">
        <ele>131.33</ele>
        <time>2019-07-14T09:05:51.999Z</time>
      </trkpt>
      <trkpt lat="48.86486" lon="1.7207">
        <ele>132.05</ele>
        <time>2019-07-14T09:06:09.999Z</time>
      </trkpt>
      <trkpt lat="48.86503" lon="1.72088">
        <ele>132.69</ele>
        <time>2019-07-14T09:06:21.999Z</time>
      </trkpt>
      <trkpt lat="48.86516" lon="1.72106">
        <ele>133.38</ele>
        <time>2019-07-14T09:06:37.999Z</time>
      </trkpt>
      <trkpt lat="48.86528" lon="1.7213">
        <ele>135.01</ele>
        <time>2019-07-14T09:07:38.999Z</time>
      </trkpt>
      <trkpt lat="48.86541" lon="1.72152">
        <ele>134.51</ele>
        <time>2019-07-14T09:07:55.999Z</time>
      </trkpt>
      <trkpt lat="48.86551" lon="1.72176">
        <ele>134.12</ele>
        <time>2019-07-14T09:08:11.999Z</time>
      </trkpt>
      <trkpt lat="48.86563" lon="1.72199">
        <ele>133.46</ele>
        <time>2019-07-14T09:08:30.999Z</time>
      </trkpt>
      <trkpt lat="48.86574" lon="1.72221">
        <ele>133.27</ele>
        <time>2019-07-14T09:08:49.999Z</time>
      </trkpt>
      <trkpt lat="48.86584" lon="1.72244">
        <ele>134.23</ele>
        <time>2019-07-14T09:09:04.999Z</time>
      </trkpt>
      <trkpt lat="48.86594" lon="1.72268">
        <ele>134.75</ele>
        <time>2019-07-14T09:09:22.999Z</time>
      </trkpt>
      <trkpt lat="48.86605" lon="1.72291">
        <ele>134.84</ele>
        <time>2019-07-14T09:09:34.999Z</time>
      </trkpt>
      <trkpt lat="48.86616" lon="1.72315">
        <ele>133.89</ele>
        <time>2019-07-14T09:09:52.999Z</time>
      </trkpt>
      <trkpt lat="48.86625" lon="1.7234">
        <ele>131.6</ele>
        <time>2019-07-14T09:10:09.999Z</time>
      </trkpt>
      <trkpt lat="48.86631" lon="1.72366">
        <ele>130.46</ele>
        <time>2019-07-14T09:10:35.999Z</time>
      </trkpt>
      <trkpt lat="48.86644" lon="1.72387">
        <ele>130.83</ele>
        <time>2019-07-14T09:10:50.999Z</time>
      </trkpt>
      <trkpt lat="48.86659" lon="1.72405">
        <ele>132.25</ele>
        <time>2019-07-14T09:11:07.999Z</time>
      </trkpt>
      <trkpt lat="48.86673" lon="1.72424">
        <ele>133.79</ele>
        <time>2019-07-14T09:11:24.999Z</time>
      </trkpt>
      <trkpt lat="48.86686" lon="1.72444">
        <ele>133.86</ele>
        <time>2019-07-14T09:11:38.999Z</time>
      </trkpt>
      <trkpt lat="48.86699" lon="1.72462">
        <ele>133.2</ele>
        <time>2019-07-14T09:11:52.999Z</time>
      </trkpt>
      <trkpt lat="48.86714" lon="1.7248">
        <ele>133.21</ele>
        <time>2019-07-14T09:12:09.999Z</time>
      </trkpt>
      <trkpt lat="48.86728" lon="1.72499">
        <ele>133.22</ele>
        <time>2019-07-14T09:12:23.999Z</time>
      </trkpt>
      <trkpt lat="48.86742" lon="1.72518">
        <ele>132.45</ele>
        <time>2019-07-14T09:12:40.999Z</time>
      </trkpt>
      <trkpt lat="48.86754" lon="1.72539">
        <ele>131.14</ele>
        <time>2019-07-14T09:12:53.999Z</time>
      </trkpt>
      <trkpt lat="48.86765" lon="1.72561">
        <ele>130.74</ele>
        <time>2019-07-14T09:13:06.000Z</time>
      </trkpt>
      <trkpt lat="48.86776" lon="1.72584">
        <ele>131.22</ele>
        <time>2019-07-14T09:13:23.000Z</time>
      </trkpt>
      <trkpt lat="48.8679" lon="1.72602">
        <ele>132.28</ele>
        <time>2019-07-14T09:13:34.000Z</time>
      </trkpt>
      <trkpt lat="48.86796" lon="1.7263">
        <ele>134.06</ele>
        <time>2019-07-14T09:13:48.000Z</time>
      </trkpt>
      <trkpt lat="48.86811" lon="1.72652">
        <ele>135.94</ele>
        <time>2019-07-14T09:14:02.000Z</time>
      </trkpt>
      <trkpt lat="48.86826" lon="1.72667">
        <ele>139.38</ele>
        <time>2019-07-14T09:14:28.000Z</time>
      </trkpt>
      <trkpt lat="48.86842" lon="1.7268">
        <ele>141.52</ele>
        <time>2019-07-14T09:14:44.000Z</time>
      </trkpt>
      <trkpt lat="48.86858" lon="1.72698">
        <ele>142.25</ele>
        <time>2019-07-14T09:14:53.000Z</time>
      </trkpt>
      <trkpt lat="48.86872" lon="1.72716">
        <ele>142.44</ele>
        <time>2019-07-14T09:15:04.000Z</time>
      </trkpt>
      <trkpt lat="48.86887" lon="1.72733">
        <ele>140.67</ele>
        <time>2019-07-14T09:15:23.000Z</time>
      </trkpt>
      <trkpt lat="48.86901" lon="1.72749">
        <ele>141.2</ele>
        <time>2019-07-14T09:15:40.000Z</time>
      </trkpt>
      <trkpt lat="48.86916" lon="1.72767">
        <ele>142.72</ele>
        <time>2019-07-14T09:15:59.000Z</time>
      </trkpt>
      <trkpt lat="48.86931" lon="1.72785">
        <ele>143.14</ele>
        <time>2019-07-14T09:16:13.000Z</time>
      </trkpt>
      <trkpt lat="48.86945" lon="1.72802">
        <ele>141.66</ele>
        <time>2019-07-14T09:16:31.000Z</time>
      </trkpt>
      <trkpt lat="48.86962" lon="1.7282">
        <ele>141.53</ele>
        <time>2019-07-14T09:16:49.000Z</time>
      </trkpt>
      <trkpt lat="48.86979" lon="1.72833">
        <ele>140.41</ele>
        <time>2019-07-14T09:17:03.000Z</time>
      </trkpt>
      <trkpt lat="48.86996" lon="1.72844">
        <ele>140.11</ele>
        <time>2019-07-14T09:17:19.000Z</time>
      </trkpt>
      <trkpt lat="48.87012" lon="1.72858">
        <ele>139.86</ele>
        <time>2019-07-14T09:17:33.000Z</time>
      </trkpt>
      <trkpt lat="48.8703" lon="1.72874">
        <ele>138.9</ele>
        <time>2019-07-14T09:17:50.000Z</time>
      </trkpt>
      <trkpt lat="48.87047" lon="1.72888">
        <ele>137.9</ele>
        <time>2019-07-14T09:18:08.000Z</time>
      </trkpt>
      <trkpt lat="48.87064" lon="1.72901">
        <ele>137.49</ele>
        <time>2019-07-14T09:18:25.000Z</time>
      </trkpt>
      <trkpt lat="48.87084" lon="1.72919">
        <ele>137.62</ele>
        <time>2019-07-14T09:18:39.000Z</time>
      </trkpt>
      <trkpt lat="48.87101" lon="1.72929">
        <ele>125.22</ele>
        <time>2019-07-14T09:20:41.000Z</time>
      </trkpt>
      <trkpt lat="48.87119" lon="1.72939">
        <ele>126.27</ele>
        <time>2019-07-14T09:21:05.000Z</time>
      </trkpt>
      <trkpt lat="48.87136" lon="1.72947">
        <ele>127.63</ele>
        <time>2019-07-14T09:21:22.000Z</time>
      </trkpt>
      <trkpt lat="48.87154" lon="1.7296">
        <ele>129.15</ele>
        <time>2019-07-14T09:21:36.000Z</time>
      </trkpt>
      <trkpt lat="48.87171" lon="1.72968">
        <ele>130.3</ele>
        <time>2019-07-14T09:21:49.000Z</time>
      </trkpt>
      <trkpt lat="48.8719" lon="1.72977">
        <ele>131.43</ele>
        <time>2019-07-14T09:22:07.000Z</time>
      </trkpt>
      <trkpt lat="48.87208" lon="1.72985">
        <ele>132.22</ele>
        <time>2019-07-14T09:22:23.000Z</time>
      </trkpt>
      <trkpt lat="48.87227" lon="1.72994">
        <ele>133</ele>
        <time>2019-07-14T09:22:36.000Z</time>
      </trkpt>
      <trkpt lat="48.87244" lon="1.73005">
        <ele>134.45</ele>
        <time>2019-07-14T09:22:53.000Z</time>
      </trkpt>
      <trkpt lat="48.87261" lon="1.73017">
        <ele>135.95</ele>
        <time>2019-07-14T09:23:10.000Z</time>
      </trkpt>
      <trkpt lat="48.87278" lon="1.73027">
        <ele>136.72</ele>
        <time>2019-07-14T09:23:24.000Z</time>
      </trkpt>
      <trkpt lat="48.87295" lon="1.73038">
        <ele>136.86</ele>
        <time>2019-07-14T09:23:43.000Z</time>
      </trkpt>
      <trkpt lat="48.87312" lon="1.73048">
        <ele>136.71</ele>
        <time>2019-07-14T09:23:59.000Z</time>
      </trkpt>
      <trkpt lat="48.8733" lon="1.7306">
        <ele>136.97</ele>
        <time>2019-07-14T09:24:14.000Z</time>
      </trkpt>
      <trkpt lat="48.87348" lon="1.73067">
        <ele>137.16</ele>
        <time>2019-07-14T09:24:28.000Z</time>
      </trkpt>
      <trkpt lat="48.87365" lon="1.73077">
        <ele>136.76</ele>
        <time>2019-07-14T09:24:43.000Z</time>
      </trkpt>
      <trkpt lat="48.87384" lon="1.73083">
        <ele>136.29</ele>
        <time>2019-07-14T09:24:57.000Z</time>
      </trkpt>
      <trkpt lat="48.87403" lon="1.73088">
        <ele>136.46</ele>
        <time>2019-07-14T09:25:16.000Z</time>
      </trkpt>
      <trkpt lat="48.87421" lon="1.73094">
        <ele>135.76</ele>
        <time>2019-07-14T09:25:31.000Z</time>
      </trkpt>
      <trkpt lat="48.87438" lon="1.73106">
        <ele>135.58</ele>
        <time>2019-07-14T09:25:41.000Z</time>
      </trkpt>
      <trkpt lat="48.87458" lon="1.73109">
        <ele>134.23</ele>
        <time>2019-07-14T09:26:01.000Z</time>
      </trkpt>
      <trkpt lat="48.87476" lon="1.73113">
        <ele>133.51</ele>
        <time>2019-07-14T09:26:25.000Z</time>
      </trkpt>
      <trkpt lat="48.87492" lon="1.7313">
        <ele>133.28</ele>
        <time>2019-07-14T09:26:41.000Z</time>
      </trkpt>
      <trkpt lat="48.87509" lon="1.73137">
        <ele>134.21</ele>
        <time>2019-07-14T09:27:35.000Z</time>
      </trkpt>
      <trkpt lat="48.87527" lon="1.73145">
        <ele>134.09</ele>
        <time>2019-07-14T09:29:07.999Z</time>
      </trkpt>
      <trkpt lat="48.87545" lon="1.73149">
        <ele>136.61</ele>
        <time>2019-07-14T09:29:25.999Z</time>
      </trkpt>
      <trkpt lat="48.87563" lon="1.73159">
        <ele>135.79</ele>
        <time>2019-07-14T09:29:42.999Z</time>
      </trkpt>
      <trkpt lat="48.87578" lon="1.73175">
        <ele>131.08</ele>
        <time>2019-07-14T09:30:11.999Z</time>
      </trkpt>
      <trkpt lat="48.87576" lon="1.73202">
        <ele>130.2</ele>
        <time>2019-07-14T09:30:24.999Z</time>
      </trkpt>
      <trkpt lat="48.87574" lon="1.7323">
        <ele>130.18</ele>
        <time>2019-07-14T09:30:40.999Z</time>
      </trkpt>
      <trkpt lat="48.87568" lon="1.73258">
        <ele>128.15</ele>
        <time>2019-07-14T09:31:07.999Z</time>
      </trkpt>
      <trkpt lat="48.87562" lon="1.73284">
        <ele>128.07</ele>
        <time>2019-07-14T09:31:21.999Z</time>
      </trkpt>
      <trkpt lat="48.87557" lon="1.73311">
        <ele>128.94</ele>
        <time>2019-07-14T09:31:36.999Z</time>
      </trkpt>
      <trkpt lat="48.87552" lon="1.73343">
        <ele>129.86</ele>
        <time>2019-07-14T09:31:55.999Z</time>
      </trkpt>
      <trkpt lat="48.8755" lon="1.73371">
        <ele>130.28</ele>
        <time>2019-07-14T09:32:09.999Z</time>
      </trkpt>
      <trkpt lat="48.87547" lon="1.73399">
        <ele>128.44</ele>
        <time>2019-07-14T09:34:01.999Z</time>
      </trkpt>
      <trkpt lat="48.87554" lon="1.73426">
        <ele>129.18</ele>
        <time>2019-07-14T09:34:17.999Z</time>
      </trkpt>
      <trkpt lat="48.87559" lon="1.73454">
        <ele>129.72</ele>
        <time>2019-07-14T09:34:33.999Z</time>
      </trkpt>
      <trkpt lat="48.8757" lon="1.73476">
        <ele>129.67</ele>
        <time>2019-07-14T09:34:46.999Z</time>
      </trkpt>
      <trkpt lat="48.87577" lon="1.73503">
        <ele>128.03</ele>
        <time>2019-07-14T09:35:08.999Z</time>
      </trkpt>
      <trkpt lat="48.87583" lon="1.73529">
        <ele>127.47</ele>
        <time>2019-07-14T09:35:20.999Z</time>
      </trkpt>
      <trkpt lat="48.87594" lon="1.73552">
        <ele>126.59</ele>
        <time>2019-07-14T09:35:37.999Z</time>
      </trkpt>
      <trkpt lat="48.87601" lon="1.73578">
        <ele>127.22</ele>
        <time>2019-07-14T09:35:52.999Z</time>
      </trkpt>
      <trkpt lat="48.87606" lon="1.73605">
        <ele>130.57</ele>
        <time>2019-07-14T09:36:07.999Z</time>
      </trkpt>
      <trkpt lat="48.87616" lon="1.7363">
        <ele>132.37</ele>
        <time>2019-07-14T09:36:23.999Z</time>
      </trkpt>
      <trkpt lat="48.87622" lon="1.73657">
        <ele>133.04</ele>
        <time>2019-07-14T09:36:39.999Z</time>
      </trkpt>
      <trkpt lat="48.87626" lon="1.73685">
        <ele>133.92</ele>
        <time>2019-07-14T09:36:55.999Z</time>
      </trkpt>
      <trkpt lat="48.8763" lon="1.73713">
        <ele>135.54</ele>
        <time>2019-07-14T09:37:09.999Z</time>
      </trkpt>
      <trkpt lat="48.87633" lon="1.73741">
        <ele>137.53</ele>
        <time>2019-07-14T09:37:25.999Z</time>
      </trkpt>
      <trkpt lat="48.87636" lon="1.73769">
        <ele>138.46</ele>
        <time>2019-07-14T09:37:42.999Z</time>
      </trkpt>
      <trkpt lat="48.87641" lon="1.73796">
        <ele>139.65</ele>
        <time>2019-07-14T09:37:58.999Z</time>
      </trkpt>
      <trkpt lat="48.87646" lon="1.73822">
        <ele>141.25</ele>
        <time>2019-07-14T09:38:11.999Z</time>
      </trkpt>
      <trkpt lat="48.87655" lon="1.73847">
        <ele>141.94</ele>
        <time>2019-07-14T09:38:27.999Z</time>
      </trkpt>
      <trkpt lat="48.87666" lon="1.7387">
        <ele>141.28</ele>
        <time>2019-07-14T09:38:41.999Z</time>
      </trkpt>
      <trkpt lat="48.87674" lon="1.73895">
        <ele>140.43</ele>
        <time>2019-07-14T09:38:58.999Z</time>
      </trkpt>
      <trkpt lat="48.87684" lon="1.73919">
        <ele>139.68</ele>
        <time>2019-07-14T09:39:12.999Z</time>
      </trkpt>
      <trkpt lat="48.87689" lon="1.73948">
        <ele>140.89</ele>
        <time>2019-07-14T09:39:28.999Z</time>
      </trkpt>
      <trkpt lat="48.87695" lon="1.73975">
        <ele>142.09</ele>
        <time>2019-07-14T09:39:43.999Z</time>
      </trkpt>
      <trkpt lat="48.877" lon="1.74002">
        <ele>142.97</ele>
        <time>2019-07-14T09:40:01.999Z</time>
      </trkpt>
      <trkpt lat="48.87707" lon="1.74028">
        <ele>142.69</ele>
        <time>2019-07-14T09:40:18.999Z</time>
      </trkpt>
      <trkpt lat="48.87715" lon="1.74057">
        <ele>141.9</ele>
        <time>2019-07-14T09:40:37.999Z</time>
      </trkpt>
      <trkpt lat="48.87723" lon="1.74082">
        <ele>141.49</ele>
        <time>2019-07-14T09:40:54.999Z</time>
      </trkpt>
      <trkpt lat="48.87731" lon="1.74108">
        <ele>140.87</ele>
        <time>2019-07-14T09:41:09.999Z</time>
      </trkpt>
      <trkpt lat="48.8774" lon="1.74135">
        <ele>141.96</ele>
        <time>2019-07-14T09:41:27.999Z</time>
      </trkpt>
      <trkpt lat="48.8775" lon="1.74159">
        <ele>143.92</ele>
        <time>2019-07-14T09:41:44.999Z</time>
      </trkpt>
      <trkpt lat="48.87757" lon="1.74187">
        <ele>144.75</ele>
        <time>2019-07-14T09:42:02.999Z</time>
      </trkpt>
      <trkpt lat="48.8776" lon="1.74215">
        <ele>146.14</ele>
        <time>2019-07-14T09:42:19.999Z</time>
      </trkpt>
      <trkpt lat="48.87761" lon="1.74244">
        <ele>147.79</ele>
        <time>2019-07-14T09:42:37.999Z</time>
      </trkpt>
      <trkpt lat="48.87757" lon="1.74273">
        <ele>147.82</ele>
        <time>2019-07-14T09:42:58.999Z</time>
      </trkpt>
      <trkpt lat="48.87751" lon="1.74299">
        <ele>153.22</ele>
        <time>2019-07-14T09:43:29.999Z</time>
      </trkpt>
      <trkpt lat="48.87748" lon="1.74329">
        <ele>155.14</ele>
        <time>2019-07-14T09:43:45.000Z</time>
      </trkpt>
      <trkpt lat="48.87747" lon="1.74357">
        <ele>154.95</ele>
        <time>2019-07-14T09:44:00.000Z</time>
      </trkpt>
      <trkpt lat="48.87746" lon="1.74385">
        <ele>154.44</ele>
        <time>2019-07-14T09:44:20.000Z</time>
      </trkpt>
      <trkpt lat="48.87749" lon="1.74412">
        <ele>154.65</ele>
        <time>2019-07-14T09:44:56.000Z</time>
      </trkpt>
      <trkpt lat="48.8775" lon="1.7444">
        <ele>154.69</ele>
        <time>2019-07-14T09:45:16.000Z</time>
      </trkpt>
      <trkpt lat="48.87753" lon="1.74468">
        <ele>152.98</ele>
        <time>2019-07-14T09:45:37.000Z</time>
      </trkpt>
      <trkpt lat="48.87756" lon="1.74495">
        <ele>151.5</ele>
        <time>2019-07-14T09:45:50.000Z</time>
      </trkpt>
      <trkpt lat="48.87758" lon="1.74524">
        <ele>150.98</ele>
        <time>2019-07-14T09:46:06.000Z</time>
      </trkpt>
      <trkpt lat="48.87762" lon="1.74552">
        <ele>150.21</ele>
        <time>2019-07-14T09:46:25.000Z</time>
      </trkpt>
      <trkpt lat="48.87768" lon="1.74578">
        <ele>150.3</ele>
        <time>2019-07-14T09:46:36.000Z</time>
      </trkpt>
      <trkpt lat="48.87777" lon="1.74604">
        <ele>152.73</ele>
        <time>2019-07-14T09:46:53.000Z</time>
      </trkpt>
      <trkpt lat="48.87789" lon="1.74627">
        <ele>155.86</ele>
        <time>2019-07-14T09:47:05.000Z</time>
      </trkpt>
      <trkpt lat="48.87805" lon="1.7464">
        <ele>159.2</ele>
        <time>2019-07-14T09:47:25.000Z</time>
      </trkpt>
      <trkpt lat="48.87821" lon="1.74654">
        <ele>160.4</ele>
        <time>2019-07-14T09:48:22.000Z</time>
      </trkpt>
      <trkpt lat="48.87837" lon="1.74666">
        <ele>162.85</ele>
        <time>2019-07-14T09:48:48.000Z</time>
      </trkpt>
      <trkpt lat="48.87855" lon="1.74678">
        <ele>166.18</ele>
        <time>2019-07-14T09:49:09.000Z</time>
      </trkpt>
      <trkpt lat="48.87872" lon="1.74688">
        <ele>168.54</ele>
        <time>2019-07-14T09:49:24.000Z</time>
      </trkpt>
      <trkpt lat="48.87885" lon="1.74709">
        <ele>169.16</ele>
        <time>2019-07-14T09:49:41.000Z</time>
      </trkpt>
      <trkpt lat="48.87896" lon="1.74733">
        <ele>168.4</ele>
        <time>2019-07-14T09:49:56.000Z</time>
      </trkpt>
      <trkpt lat="48.87909" lon="1.74753">
        <ele>168.7</ele>
        <time>2019-07-14T09:50:15.000Z</time>
      </trkpt>
      <trkpt lat="48.87921" lon="1.74774">
        <ele>168.91</ele>
        <time>2019-07-14T09:50:27.000Z</time>
      </trkpt>
      <trkpt lat="48.87932" lon="1.74797">
        <ele>169.6</ele>
        <time>2019-07-14T09:50:46.000Z</time>
      </trkpt>
      <trkpt lat="48.87942" lon="1.74821">
        <ele>169.35</ele>
        <time>2019-07-14T09:51:04.000Z</time>
      </trkpt>
      <trkpt lat="48.87949" lon="1.74847">
        <ele>169.05</ele>
        <time>2019-07-14T09:51:29.000Z</time>
      </trkpt>
      <trkpt lat="48.87954" lon="1.74875">
        <ele>168.44</ele>
        <time>2019-07-14T09:51:50.000Z</time>
      </trkpt>
      <trkpt lat="48.87958" lon="1.74902">
        <ele>167.31</ele>
        <time>2019-07-14T09:52:03.000Z</time>
      </trkpt>
      <trkpt lat="48.87964" lon="1.74927">
        <ele>167.89</ele>
        <time>2019-07-14T09:52:24.000Z</time>
      </trkpt>
      <trkpt lat="48.87966" lon="1.74955">
        <ele>166.58</ele>
        <time>2019-07-14T09:52:43.000Z</time>
      </trkpt>
      <trkpt lat="48.87964" lon="1.74985">
        <ele>164.71</ele>
        <time>2019-07-14T09:52:56.000Z</time>
      </trkpt>
      <trkpt lat="48.87966" lon="1.75012">
        <ele>163.62</ele>
        <time>2019-07-14T09:53:10.000Z</time>
      </trkpt>
      <trkpt lat="48.87983" lon="1.75019">
        <ele>164.48</ele>
        <time>2019-07-14T09:53:31.000Z</time>
      </trkpt>
      <trkpt lat="48.87997" lon="1.75">
        <ele>166.04</ele>
        <time>2019-07-14T09:53:42.000Z</time>
      </trkpt>
      <trkpt lat="48.88009" lon="1.74979">
        <ele>168.28</ele>
        <time>2019-07-14T09:53:57.000Z</time>
      </trkpt>
      <trkpt lat="48.88022" lon="1.74958">
        <ele>169.93</ele>
        <time>2019-07-14T09:54:13.000Z</time>
      </trkpt>
      <trkpt lat="48.88034" lon="1.74938">
        <ele>170.7</ele>
        <time>2019-07-14T09:54:28.000Z</time>
      </trkpt>
      <trkpt lat="48.88048" lon="1.7492">
        <ele>172.18</ele>
        <time>2019-07-14T09:54:45.000Z</time>
      </trkpt>
      <trkpt lat="48.88063" lon="1.74903">
        <ele>173.44</ele>
        <time>2019-07-14T09:55:59.000Z</time>
      </trkpt>
      <trkpt lat="48.88079" lon="1.74888">
        <ele>172.45</ele>
        <time>2019-07-14T09:56:15.000Z</time>
      </trkpt>
      <trkpt lat="48.88094" lon="1.74872">
        <ele>170.32</ele>
        <time>2019-07-14T09:56:33.000Z</time>
      </trkpt>
      <trkpt lat="48.8811" lon="1.74857">
        <ele>169.77</ele>
        <time>2019-07-14T09:56:49.000Z</time>
      </trkpt>
      <trkpt lat="48.88127" lon="1.74844">
        <ele>170.64</ele>
        <time>2019-07-14T09:57:03.000Z</time>
      </trkpt>
      <trkpt lat="48.88144" lon="1.7483">
        <ele>171.66</ele>
        <time>2019-07-14T09:57:19.000Z</time>
      </trkpt>
      <trkpt lat="48.88161" lon="1.74818">
        <ele>169.95</ele>
        <time>2019-07-14T09:57:34.000Z</time>
      </trkpt>
      <trkpt lat="48.8818" lon="1.74813">
        <ele>167.12</ele>
        <time>2019-07-14T09:57:53.000Z</time>
      </trkpt>
      <trkpt lat="48.88199" lon="1.74806">
        <ele>165.75</ele>
        <time>2019-07-14T09:58:04.000Z</time>
      </trkpt>
      <trkpt lat="48.88217" lon="1.74803">
        <ele>163.8</ele>
        <time>2019-07-14T09:58:21.000Z</time>
      </trkpt>
      <trkpt lat="48.88236" lon="1.74798">
        <ele>162.78</ele>
        <time>2019-07-14T09:59:03.999Z</time>
      </trkpt>
      <trkpt lat="48.88252" lon="1.74786">
        <ele>164.6</ele>
        <time>2019-07-14T09:59:57.999Z</time>
      </trkpt>
      <trkpt lat="48.8827" lon="1.74777">
        <ele>163.56</ele>
        <time>2019-07-14T10:00:23.999Z</time>
      </trkpt>
      <trkpt lat="48.88286" lon="1.74765">
        <ele>161.93</ele>
        <time>2019-07-14T10:00:40.999Z</time>
      </trkpt>
      <trkpt lat="48.88305" lon="1.74763">
        <ele>158.5</ele>
        <time>2019-07-14T10:01:20.999Z</time>
      </trkpt>
      <trkpt lat="48.88323" lon="1.74758">
        <ele>156.89</ele>
        <time>2019-07-14T10:01:38.999Z</time>
      </trkpt>
      <trkpt lat="48.88342" lon="1.74754">
        <ele>156.3</ele>
        <time>2019-07-14T10:01:51.999Z</time>
      </trkpt>
      <trkpt lat="48.88361" lon="1.74752">
        <ele>155.37</ele>
        <time>2019-07-14T10:02:04.999Z</time>
      </trkpt>
      <trkpt lat="48.88379" lon="1.74757">
        <ele>154.94</ele>
        <time>2019-07-14T10:02:17.999Z</time>
      </trkpt>
      <trkpt lat="48.88397" lon="1.74756">
        <ele>155.08</ele>
        <time>2019-07-14T10:02:31.999Z</time>
      </trkpt>
      <trkpt lat="48.88416" lon="1.74755">
        <ele>153</ele>
        <time>2019-07-14T10:02:53.999Z</time>
      </trkpt>
      <trkpt lat="48.88434" lon="1.74751">
        <ele>151.13</ele>
        <time>2019-07-14T10:03:28.999Z</time>
      </trkpt>
      <trkpt lat="48.88452" lon="1.74745">
        <ele>149.62</ele>
        <time>2019-07-14T10:03:55.999Z</time>
      </trkpt>
      <trkpt lat="48.88469" lon="1.74738">
        <ele>147.5</ele>
        <time>2019-07-14T10:04:14.999Z</time>
      </trkpt>
      <trkpt lat="48.88488" lon="1.74733">
        <ele>145.46</ele>
        <time>2019-07-14T10:04:32.999Z</time>
      </trkpt>
      <trkpt lat="48.88506" lon="1.7473">
        <ele>142.17</ele>
        <time>2019-07-14T10:04:55.999Z</time>
      </trkpt>
      <trkpt lat="48.88525" lon="1.74729">
        <ele>141.14</ele>
        <time>2019-07-14T10:05:11.999Z</time>
      </trkpt>
      <trkpt lat="48.88543" lon="1.74721">
        <ele>140.42</ele>
        <time>2019-07-14T10:05:34.999Z</time>
      </trkpt>
      <trkpt lat="48.88562" lon="1.7472">
        <ele>138.3</ele>
        <time>2019-07-14T10:05:52.999Z</time>
      </trkpt>
      <trkpt lat="48.8858" lon="1.74727">
        <ele>137.5</ele>
        <time>2019-07-14T10:06:05.999Z</time>
      </trkpt>
      <trkpt lat="48.88598" lon="1.74736">
        <ele>138.55</ele>
        <time>2019-07-14T10:06:19.999Z</time>
      </trkpt>
      <trkpt lat="48.88614" lon="1.74746">
        <ele>139.92</ele>
        <time>2019-07-14T10:06:35.999Z</time>
      </trkpt>
      <trkpt lat="48.88632" lon="1.74757">
        <ele>141.27</ele>
        <time>2019-07-14T10:06:52.999Z</time>
      </trkpt>
      <trkpt lat="48.88647" lon="1.74773">
        <ele>141.2</ele>
        <time>2019-07-14T10:07:09.999Z</time>
      </trkpt>
      <trkpt lat="48.88664" lon="1.74785">
        <ele>140.64</ele>
        <time>2019-07-14T10:07:24.999Z</time>
      </trkpt>
      <trkpt lat="48.88671" lon="1.7481">
        <ele>140.64</ele>
        <time>2019-07-14T10:07:50.999Z</time>
      </trkpt>
      <trkpt lat="48.88671" lon="1.74839">
        <ele>141.85</ele>
        <time>2019-07-14T10:08:27.999Z</time>
      </trkpt>
      <trkpt lat="48.88684" lon="1.74862">
        <ele>141.28</ele>
        <time>2019-07-14T10:08:45.999Z</time>
      </trkpt>
      <trkpt lat="48.88694" lon="1.74885">
        <ele>139.13</ele>
        <time>2019-07-14T10:09:01.999Z</time>
      </trkpt>
      <trkpt lat="48.88706" lon="1.74908">
        <ele>136.52</ele>
        <time>2019-07-14T10:09:15.999Z</time>
      </trkpt>
      <trkpt lat="48.88716" lon="1.7493">
        <ele>133.88</ele>
        <time>2019-07-14T10:09:32.999Z</time>
      </trkpt>
      <trkpt lat="48.88728" lon="1.74951">
        <ele>132.64</ele>
        <time>2019-07-14T10:09:44.999Z</time>
      </trkpt>
      <trkpt lat="48.88738" lon="1.74976">
        <ele>131.62</ele>
        <time>2019-07-14T10:10:00.999Z</time>
      </trkpt>
      <trkpt lat="48.88749" lon="1.74997">
        <ele>131.71</ele>
        <time>2019-07-14T10:10:14.999Z</time>
      </trkpt>
      <trkpt lat="48.88761" lon="1.75018">
        <ele>131.5</ele>
        <time>2019-07-14T10:10:29.999Z</time>
      </trkpt>
      <trkpt lat="48.88774" lon="1.75038">
        <ele>131.49</ele>
        <time>2019-07-14T10:10:42.999Z</time>
      </trkpt>
      <trkpt lat="48.88788" lon="1.75059">
        <ele>131.72</ele>
        <time>2019-07-14T10:10:57.999Z</time>
      </trkpt>
      <trkpt lat="48.88801" lon="1.7508">
        <ele>131.88</ele>
        <time>2019-07-14T10:11:10.999Z</time>
      </trkpt>
      <trkpt lat="48.88811" lon="1.75103">
        <ele>131.45</ele>
        <time>2019-07-14T10:11:28.999Z</time>
      </trkpt>
      <trkpt lat="48.88823" lon="1.75126">
        <ele>131.37</ele>
        <time>2019-07-14T10:11:42.999Z</time>
      </trkpt>
      <trkpt lat="48.88835" lon="1.75147">
        <ele>131.04</ele>
        <time>2019-07-14T10:11:57.999Z</time>
      </trkpt>
      <trkpt lat="48.88845" lon="1.7517">
        <ele>130.98</ele>
        <time>2019-07-14T10:12:11.999Z</time>
      </trkpt>
      <trkpt lat="48.88854" lon="1.75194">
        <ele>131.3</ele>
        <time>2019-07-14T10:12:25.999Z</time>
      </trkpt>
      <trkpt lat="48.88867" lon="1.75215">
        <ele>131.44</ele>
        <time>2019-07-14T10:12:40.999Z</time>
      </trkpt>
      <trkpt lat="48.8888" lon="1.75234">
        <ele>131.31</ele>
        <time>2019-07-14T10:12:55.999Z</time>
      </trkpt>
      <trkpt lat="48.88899" lon="1.75233">
        <ele>133.33</ele>
        <time>2019-07-14T10:13:12.999Z</time>
      </trkpt>
      <trkpt lat="48.88916" lon="1.75221">
        <ele>136.05</ele>
        <time>2019-07-14T10:13:28.999Z</time>
      </trkpt>
      <trkpt lat="48.8893" lon="1.75204">
        <ele>137.32</ele>
        <time>2019-07-14T10:13:45.999Z</time>
      </trkpt>
      <trkpt lat="48.88948" lon="1.75193">
        <ele>138.16</ele>
        <time>2019-07-14T10:14:00.999Z</time>
      </trkpt>
      <trkpt lat="48.88964" lon="1.75181">
        <ele>138.77</ele>
        <time>2019-07-14T10:14:14.999Z</time>
      </trkpt>
      <trkpt lat="48.88982" lon="1.75173">
        <ele>139.34</ele>
        <time>2019-07-14T10:14:30.000Z</time>
      </trkpt>
      <trkpt lat="48.89" lon="1.75167">
        <ele>139.19</ele>
        <time>2019-07-14T10:14:47.000Z</time>
      </trkpt>
      <trkpt lat="48.89018" lon="1.75159">
        <ele>138.85</ele>
        <time>2019-07-14T10:15:01.000Z</time>
      </trkpt>
      <trkpt lat="48.89036" lon="1.75153">
        <ele>138.99</ele>
        <time>2019-07-14T10:15:15.000Z</time>
      </trkpt>
      <trkpt lat="48.89054" lon="1.75148">
        <ele>139.25</ele>
        <time>2019-07-14T10:15:32.000Z</time>
      </trkpt>
      <trkpt lat="48.89072" lon="1.75136">
        <ele>139.86</ele>
        <time>2019-07-14T10:15:48.000Z</time>
      </trkpt>
      <trkpt lat="48.89089" lon="1.75125">
        <ele>140.28</ele>
        <time>2019-07-14T10:16:03.000Z</time>
      </trkpt>
      <trkpt lat="48.89105" lon="1.7511">
        <ele>140.35</ele>
        <time>2019-07-14T10:16:18.000Z</time>
      </trkpt>
      <trkpt lat="48.89117" lon="1.75089">
        <ele>140.05</ele>
        <time>2019-07-14T10:16:59.000Z</time>
      </trkpt>
      <trkpt lat="48.89132" lon="1.75071">
        <ele>141.47</ele>
        <time>2019-07-14T10:17:21.000Z</time>
      </trkpt>
      <trkpt lat="48.89145" lon="1.7505">
        <ele>141.81</ele>
        <time>2019-07-14T10:17:39.000Z</time>
      </trkpt>
      <trkpt lat="48.89157" lon="1.7503">
        <ele>141.57</ele>
        <time>2019-07-14T10:17:55.000Z</time>
      </trkpt>
      <trkpt lat="48.89167" lon="1.75005">
        <ele>141.31</ele>
        <time>2019-07-14T10:18:09.000Z</time>
      </trkpt>
      <trkpt lat="48.89177" lon="1.74982">
        <ele>141.1</ele>
        <time>2019-07-14T10:18:25.000Z</time>
      </trkpt>
      <trkpt lat="48.89188" lon="1.74958">
        <ele>141.27</ele>
        <time>2019-07-14T10:18:40.000Z</time>
      </trkpt>
      <trkpt lat="48.89198" lon="1.74934">
        <ele>140.96</ele>
        <time>2019-07-14T10:18:57.000Z</time>
      </trkpt>
      <trkpt lat="48.8921" lon="1.7491">
        <ele>140.86</ele>
        <time>2019-07-14T10:19:10.000Z</time>
      </trkpt>
      <trkpt lat="48.89222" lon="1.74887">
        <ele>140.65</ele>
        <time>2019-07-14T10:19:26.000Z</time>
      </trkpt>
      <trkpt lat="48.89231" lon="1.74863">
        <ele>141.09</ele>
        <time>2019-07-14T10:19:41.000Z</time>
      </trkpt>
      <trkpt lat="48.89243" lon="1.74842">
        <ele>141.28</ele>
        <time>2019-07-14T10:19:53.000Z</time>
      </trkpt>
      <trkpt lat="48.89252" lon="1.74818">
        <ele>141.38</ele>
        <time>2019-07-14T10:20:06.000Z</time>
      </trkpt>
      <trkpt lat="48.89253" lon="1.7479">
        <ele>141.8</ele>
        <time>2019-07-14T10:20:38.000Z</time>
      </trkpt>
      <trkpt lat="48.89246" lon="1.74764">
        <ele>142.92</ele>
        <time>2019-07-14T10:21:17.000Z</time>
      </trkpt>
      <trkpt lat="48.89234" lon="1.74743">
        <ele>145.16</ele>
        <time>2019-07-14T10:21:46.000Z</time>
      </trkpt>
      <trkpt lat="48.89224" lon="1.74719">
        <ele>146.63</ele>
        <time>2019-07-14T10:22:00.000Z</time>
      </trkpt>
      <trkpt lat="48.89216" lon="1.74694">
        <ele>148.15</ele>
        <time>2019-07-14T10:22:17.000Z</time>
      </trkpt>
      <trkpt lat="48.89209" lon="1.74666">
        <ele>150.35</ele>
        <time>2019-07-14T10:28:01.000Z</time>
      </trkpt>
      <trkpt lat="48.89202" lon="1.74638">
        <ele>151.14</ele>
        <time>2019-07-14T10:28:18.000Z</time>
      </trkpt>
      <trkpt lat="48.8919" lon="1.74617">
        <ele>151.55</ele>
        <time>2019-07-14T10:28:30.000Z</time>
      </trkpt>
      <trkpt lat="48.89178" lon="1.74596">
        <ele>150.54</ele>
        <time>2019-07-14T10:28:44.000Z</time>
      </trkpt>
      <trkpt lat="48.89172" lon="1.74568">
        <ele>149.92</ele>
        <time>2019-07-14T10:29:03.000Z</time>
      </trkpt>
      <trkpt lat="48.89156" lon="1.74549">
        <ele>151.64</ele>
        <time>2019-07-14T10:29:17.000Z</time>
      </trkpt>
      <trkpt lat="48.89149" lon="1.74523">
        <ele>153.79</ele>
        <time>2019-07-14T10:29:32.000Z</time>
      </trkpt>
      <trkpt lat="48.89138" lon="1.74497">
        <ele>154.68</ele>
        <time>2019-07-14T10:29:46.999Z</time>
      </trkpt>
      <trkpt lat="48.89125" lon="1.74477">
        <ele>153.4</ele>
        <time>2019-07-14T10:30:05.999Z</time>
      </trkpt>
      <trkpt lat="48.89116" lon="1.74453">
        <ele>153.18</ele>
        <time>2019-07-14T10:30:17.999Z</time>
      </trkpt>
      <trkpt lat="48.89107" lon="1.74429">
        <ele>152.37</ele>
        <time>2019-07-14T10:30:32.999Z</time>
      </trkpt>
      <trkpt lat="48.89099" lon="1.74404">
        <ele>151.85</ele>
        <time>2019-07-14T10:30:51.999Z</time>
      </trkpt>
      <trkpt lat="48.89091" lon="1.74377">
        <ele>152.35</ele>
        <time>2019-07-14T10:31:04.999Z</time>
      </trkpt>
      <trkpt lat="48.89082" lon="1.74352">
        <ele>153.13</ele>
        <time>2019-07-14T10:31:21.999Z</time>
      </trkpt>
      <trkpt lat="48.89073" lon="1.74328">
        <ele>152.43</ele>
        <time>2019-07-14T10:31:43.999Z</time>
      </trkpt>
      <trkpt lat="48.89063" lon="1.74303">
        <ele>151.07</ele>
        <time>2019-07-14T10:32:00.999Z</time>
      </trkpt>
      <trkpt lat="48.89049" lon="1.74282">
        <ele>151.01</ele>
        <time>2019-07-14T10:32:19.999Z</time>
      </trkpt>
      <trkpt lat="48.89061" lon="1.74306">
        <ele>150.51</ele>
        <time>2019-07-14T10:59:28.000Z</time>
      </trkpt>
      <trkpt lat="48.89071" lon="1.74329">
        <ele>151.97</ele>
        <time>2019-07-14T10:59:40.999Z</time>
      </trkpt>
      <trkpt lat="48.89079" lon="1.74354">
        <ele>152.15</ele>
        <time>2019-07-14T10:59:56.999Z</time>
      </trkpt>
      <trkpt lat="48.89088" lon="1.7438">
        <ele>151.93</ele>
        <time>2019-07-14T11:00:11.999Z</time>
      </trkpt>
      <trkpt lat="48.89097" lon="1.74405">
        <ele>152.8</ele>
        <time>2019-07-14T11:00:26.999Z</time>
      </trkpt>
      <trkpt lat="48.89109" lon="1.74429">
        <ele>154.25</ele>
        <time>2019-07-14T11:00:41.999Z</time>
      </trkpt>
      <trkpt lat="48.8912" lon="1.74452">
        <ele>155.44</ele>
        <time>2019-07-14T11:00:56.999Z</time>
      </trkpt>
      <trkpt lat="48.8913" lon="1.74476">
        <ele>155.91</ele>
        <time>2019-07-14T11:01:14.999Z</time>
      </trkpt>
      <trkpt lat="48.89138" lon="1.74501">
        <ele>156.51</ele>
        <time>2019-07-14T11:01:27.999Z</time>
      </trkpt>
      <trkpt lat="48.89149" lon="1.74524">
        <ele>157.39</ele>
        <time>2019-07-14T11:01:40.999Z</time>
      </trkpt>
      <trkpt lat="48.89161" lon="1.74548">
        <ele>157.38</ele>
        <time>2019-07-14T11:01:54.999Z</time>
      </trkpt>
      <trkpt lat="48.8917" lon="1.74572">
        <ele>156.36</ele>
        <time>2019-07-14T11:02:12.999Z</time>
      </trkpt>
      <trkpt lat="48.89179" lon="1.74596">
        <ele>156.32</ele>
        <time>2019-07-14T11:02:24.999Z</time>
      </trkpt>
      <trkpt lat="48.89187" lon="1.74621">
        <ele>156.78</ele>
        <time>2019-07-14T11:02:41.999Z</time>
      </trkpt>
      <trkpt lat="48.89196" lon="1.74646">
        <ele>156.94</ele>
        <time>2019-07-14T11:02:56.999Z</time>
      </trkpt>
      <trkpt lat="48.89204" lon="1.74671">
        <ele>156.04</ele>
        <time>2019-07-14T11:03:12.999Z</time>
      </trkpt>
      <trkpt lat="48.89211" lon="1.74699">
        <ele>154.36</ele>
        <time>2019-07-14T11:03:27.999Z</time>
      </trkpt>
      <trkpt lat="48.89219" lon="1.74724">
        <ele>153.75</ele>
        <time>2019-07-14T11:03:44.999Z</time>
      </trkpt>
      <trkpt lat="48.89228" lon="1.74749">
        <ele>153.53</ele>
        <time>2019-07-14T11:03:59.999Z</time>
      </trkpt>
      <trkpt lat="48.89237" lon="1.74774">
        <ele>153.17</ele>
        <time>2019-07-14T11:04:14.999Z</time>
      </trkpt>
      <trkpt lat="48.89251" lon="1.74791">
        <ele>152.13</ele>
        <time>2019-07-14T11:04:56.999Z</time>
      </trkpt>
      <trkpt lat="48.89265" lon="1.74774">
        <ele>151.8</ele>
        <time>2019-07-14T11:05:04.999Z</time>
      </trkpt>
      <trkpt lat="48.89281" lon="1.74759">
        <ele>150.21</ele>
        <time>2019-07-14T11:05:18.999Z</time>
      </trkpt>
      <trkpt lat="48.89298" lon="1.74743">
        <ele>148.55</ele>
        <time>2019-07-14T11:05:31.999Z</time>
      </trkpt>
      <trkpt lat="48.89314" lon="1.74729">
        <ele>147.45</ele>
        <time>2019-07-14T11:05:48.999Z</time>
      </trkpt>
      <trkpt lat="48.89328" lon="1.74713">
        <ele>147.33</ele>
        <time>2019-07-14T11:06:01.999Z</time>
      </trkpt>
      <trkpt lat="48.89344" lon="1.74697">
        <ele>147.62</ele>
        <time>2019-07-14T11:06:16.999Z</time>
      </trkpt>
      <trkpt lat="48.89359" lon="1.7468">
        <ele>147.25</ele>
        <time>2019-07-14T11:06:32.999Z</time>
      </trkpt>
      <trkpt lat="48.89375" lon="1.74665">
        <ele>146.64</ele>
        <time>2019-07-14T11:06:47.999Z</time>
      </trkpt>
      <trkpt lat="48.8939" lon="1.74648">
        <ele>146.49</ele>
        <time>2019-07-14T11:07:02.999Z</time>
      </trkpt>
      <trkpt lat="48.89407" lon="1.74635">
        <ele>146.23</ele>
        <time>2019-07-14T11:07:17.999Z</time>
      </trkpt>
      <trkpt lat="48.89423" lon="1.7462">
        <ele>146.22</ele>
        <time>2019-07-14T11:07:32.999Z</time>
      </trkpt>
      <trkpt lat="48.89442" lon="1.74613">
        <ele>146.38</ele>
        <time>2019-07-14T11:07:48.999Z</time>
      </trkpt>
      <trkpt lat="48.8946" lon="1.74609">
        <ele>145.84</ele>
        <time>2019-07-14T11:08:04.999Z</time>
      </trkpt>
      <trkpt lat="48.89479" lon="1.74609">
        <ele>144.71</ele>
        <time>2019-07-14T11:08:21.999Z</time>
      </trkpt>
      <trkpt lat="48.89497" lon="1.74604">
        <ele>144.93</ele>
        <time>2019-07-14T11:08:36.999Z</time>
      </trkpt>
      <trkpt lat="48.89516" lon="1.74605">
        <ele>145.08</ele>
        <time>2019-07-14T11:08:52.999Z</time>
      </trkpt>
      <trkpt lat="48.89536" lon="1.74605">
        <ele>144.09</ele>
        <time>2019-07-14T11:09:06.999Z</time>
      </trkpt>
      <trkpt lat="48.89555" lon="1.74606">
        <ele>140.81</ele>
        <time>2019-07-14T11:09:23.999Z</time>
      </trkpt>
      <trkpt lat="48.89574" lon="1.74601">
        <ele>138.35</ele>
        <time>2019-07-14T11:09:35.999Z</time>
      </trkpt>
      <trkpt lat="48.89592" lon="1.74597">
        <ele>137.36</ele>
        <time>2019-07-14T11:09:47.999Z</time>
      </trkpt>
      <trkpt lat="48.8961" lon="1.74593">
        <ele>135.71</ele>
        <time>2019-07-14T11:10:02.999Z</time>
      </trkpt>
      <trkpt lat="48.89629" lon="1.74594">
        <ele>134.86</ele>
        <time>2019-07-14T11:10:17.999Z</time>
      </trkpt>
      <trkpt lat="48.89647" lon="1.74595">
        <ele>133.84</ele>
        <time>2019-07-14T11:10:28.999Z</time>
      </trkpt>
      <trkpt lat="48.89667" lon="1.74592">
        <ele>132.72</ele>
        <time>2019-07-14T11:10:44.999Z</time>
      </trkpt>
      <trkpt lat="48.89686" lon="1.74589">
        <ele>132.94</ele>
        <time>2019-07-14T11:10:57.999Z</time>
      </trkpt>
      <trkpt lat="48.89705" lon="1.74592">
        <ele>131.73</ele>
        <time>2019-07-14T11:11:16.999Z</time>
      </trkpt>
      <trkpt lat="48.89723" lon="1.74598">
        <ele>128.68</ele>
        <time>2019-07-14T11:11:31.999Z</time>
      </trkpt>
      <trkpt lat="48.89742" lon="1.746">
        <ele>126.68</ele>
        <time>2019-07-14T11:11:44.999Z</time>
      </trkpt>
      <trkpt lat="48.8976" lon="1.74603">
        <ele>126.01</ele>
        <time>2019-07-14T11:11:56.999Z</time>
      </trkpt>
      <trkpt lat="48.8978" lon="1.74608">
        <ele>126.37</ele>
        <time>2019-07-14T11:12:14.999Z</time>
      </trkpt>
      <trkpt lat="48.89798" lon="1.74614">
        <ele>127.28</ele>
        <time>2019-07-14T11:12:30.999Z</time>
      </trkpt>
      <trkpt lat="48.89817" lon="1.74612">
        <ele>127.95</ele>
        <time>2019-07-14T11:12:43.999Z</time>
      </trkpt>
      <trkpt lat="48.89835" lon="1.74609">
        <ele>128.33</ele>
        <time>2019-07-14T11:12:55.999Z</time>
      </trkpt>
      <trkpt lat="48.89852" lon="1.74596">
        <ele>128.73</ele>
        <time>2019-07-14T11:13:07.999Z</time>
      </trkpt>
      <trkpt lat="48.89867" lon="1.7458">
        <ele>128.31</ele>
        <time>2019-07-14T11:13:20.999Z</time>
      </trkpt>
      <trkpt lat="48.89881" lon="1.74563">
        <ele>127.68</ele>
        <time>2019-07-14T11:13:32.999Z</time>
      </trkpt>
      <trkpt lat="48.89895" lon="1.74544">
        <ele>126.72</ele>
        <time>2019-07-14T11:13:45.999Z</time>
      </trkpt>
      <trkpt lat="48.8991" lon="1.74527">
        <ele>125.65</ele>
        <time>2019-07-14T11:13:59.999Z</time>
      </trkpt>
      <trkpt lat="48.89924" lon="1.74509">
        <ele>124.93</ele>
        <time>2019-07-14T11:14:12.999Z</time>
      </trkpt>
      <trkpt lat="48.89939" lon="1.74492">
        <ele>124.18</ele>
        <time>2019-07-14T11:14:28.000Z</time>
      </trkpt>
      <trkpt lat="48.89955" lon="1.74476">
        <ele>123.42</ele>
        <time>2019-07-14T11:14:41.000Z</time>
      </trkpt>
      <trkpt lat="48.8997" lon="1.7446">
        <ele>123.17</ele>
        <time>2019-07-14T11:15:00.000Z</time>
      </trkpt>
      <trkpt lat="48.89987" lon="1.7447">
        <ele>128.35</ele>
        <time>2019-07-14T11:18:35.000Z</time>
      </trkpt>
      <trkpt lat="48.9" lon="1.7449">
        <ele>127.29</ele>
        <time>2019-07-14T11:18:49.000Z</time>
      </trkpt>
      <trkpt lat="48.90011" lon="1.74514">
        <ele>126.58</ele>
        <time>2019-07-14T11:19:02.000Z</time>
      </trkpt>
      <trkpt lat="48.90023" lon="1.74537">
        <ele>126.1</ele>
        <time>2019-07-14T11:19:20.000Z</time>
      </trkpt>
      <trkpt lat="48.90034" lon="1.74558">
        <ele>127.35</ele>
        <time>2019-07-14T11:19:35.000Z</time>
      </trkpt>
      <trkpt lat="48.90047" lon="1.7458">
        <ele>127.98</ele>
        <time>2019-07-14T11:19:53.000Z</time>
      </trkpt>
      <trkpt lat="48.90059" lon="1.74602">
        <ele>127.58</ele>
        <time>2019-07-14T11:20:05.000Z</time>
      </trkpt>
      <trkpt lat="48.90069" lon="1.74624">
        <ele>126.38</ele>
        <time>2019-07-14T11:20:23.000Z</time>
      </trkpt>
      <trkpt lat="48.90081" lon="1.74647">
        <ele>126.23</ele>
        <time>2019-07-14T11:20:39.000Z</time>
      </trkpt>
      <trkpt lat="48.9009" lon="1.7467">
        <ele>125.68</ele>
        <time>2019-07-14T11:20:55.000Z</time>
      </trkpt>
      <trkpt lat="48.90103" lon="1.74691">
        <ele>124.25</ele>
        <time>2019-07-14T11:21:09.000Z</time>
      </trkpt>
      <trkpt lat="48.90115" lon="1.74715">
        <ele>123.57</ele>
        <time>2019-07-14T11:21:22.000Z</time>
      </trkpt>
      <trkpt lat="48.90124" lon="1.74742">
        <ele>123.5</ele>
        <time>2019-07-14T11:21:38.000Z</time>
      </trkpt>
      <trkpt lat="48.90136" lon="1.74763">
        <ele>124.41</ele>
        <time>2019-07-14T11:21:53.000Z</time>
      </trkpt>
      <trkpt lat="48.90147" lon="1.74787">
        <ele>125.29</ele>
        <time>2019-07-14T11:22:09.000Z</time>
      </trkpt>
      <trkpt lat="48.90157" lon="1.74811">
        <ele>124.88</ele>
        <time>2019-07-14T11:22:22.000Z</time>
      </trkpt>
      <trkpt lat="48.90167" lon="1.74834">
        <ele>124.23</ele>
        <time>2019-07-14T11:22:37.000Z</time>
      </trkpt>
      <trkpt lat="48.9018" lon="1.74857">
        <ele>123.22</ele>
        <time>2019-07-14T11:22:53.000Z</time>
      </trkpt>
      <trkpt lat="48.90189" lon="1.74882">
        <ele>122.59</ele>
        <time>2019-07-14T11:23:04.000Z</time>
      </trkpt>
      <trkpt lat="48.902" lon="1.74906">
        <ele>122.59</ele>
        <time>2019-07-14T11:23:18.000Z</time>
      </trkpt>
      <trkpt lat="48.90212" lon="1.74928">
        <ele>123.18</ele>
        <time>2019-07-14T11:23:31.000Z</time>
      </trkpt>
      <trkpt lat="48.90223" lon="1.74951">
        <ele>123.54</ele>
        <time>2019-07-14T11:23:46.000Z</time>
      </trkpt>
      <trkpt lat="48.90234" lon="1.74975">
        <ele>123.69</ele>
        <time>2019-07-14T11:24:00.000Z</time>
      </trkpt>
      <trkpt lat="48.90247" lon="1.74996">
        <ele>123.53</ele>
        <time>2019-07-14T11:24:15.000Z</time>
      </trkpt>
      <trkpt lat="48.90261" lon="1.75014">
        <ele>124.22</ele>
        <time>2019-07-14T11:24:29.000Z</time>
      </trkpt>
      <trkpt lat="48.90275" lon="1.75034">
        <ele>124.14</ele>
        <time>2019-07-14T11:24:43.000Z</time>
      </trkpt>
      <trkpt lat="48.90288" lon="1.75054">
        <ele>123.37</ele>
        <time>2019-07-14T11:24:56.000Z</time>
      </trkpt>
      <trkpt lat="48.90302" lon="1.75072">
        <ele>121.41</ele>
        <time>2019-07-14T11:25:13.000Z</time>
      </trkpt>
      <trkpt lat="48.90315" lon="1.75092">
        <ele>120.56</ele>
        <time>2019-07-14T11:25:25.000Z</time>
      </trkpt>
      <trkpt lat="48.90328" lon="1.75112">
        <ele>120.09</ele>
        <time>2019-07-14T11:25:37.000Z</time>
      </trkpt>
      <trkpt lat="48.90341" lon="1.75132">
        <ele>120.18</ele>
        <time>2019-07-14T11:25:51.000Z</time>
      </trkpt>
      <trkpt lat="48.90355" lon="1.75151">
        <ele>120.27</ele>
        <time>2019-07-14T11:26:04.000Z</time>
      </trkpt>
      <trkpt lat="48.90369" lon="1.75169">
        <ele>120.89</ele>
        <time>2019-07-14T11:26:18.000Z</time>
      </trkpt>
      <trkpt lat="48.90384" lon="1.75185">
        <ele>121.59</ele>
        <time>2019-07-14T11:26:35.000Z</time>
      </trkpt>
      <trkpt lat="48.90398" lon="1.75204">
        <ele>121.2</ele>
        <time>2019-07-14T11:26:50.000Z</time>
      </trkpt>
      <trkpt lat="48.90411" lon="1.75225">
        <ele>120.47</ele>
        <time>2019-07-14T11:27:06.000Z</time>
      </trkpt>
      <trkpt lat="48.90425" lon="1.75244">
        <ele>120.45</ele>
        <time>2019-07-14T11:27:18.000Z</time>
      </trkpt>
      <trkpt lat="48.90436" lon="1.75266">
        <ele>124.54</ele>
        <time>2019-07-14T11:29:04.000Z</time>
      </trkpt>
      <trkpt lat="48.90445" lon="1.7529">
        <ele>125.78</ele>
        <time>2019-07-14T11:29:24.000Z</time>
      </trkpt>
      <trkpt lat="48.90458" lon="1.75309">
        <ele>126.34</ele>
        <time>2019-07-14T11:29:37.999Z</time>
      </trkpt>
      <trkpt lat="48.90471" lon="1.75331">
        <ele>126.25</ele>
        <time>2019-07-14T11:29:56.999Z</time>
      </trkpt>
      <trkpt lat="48.90483" lon="1.75353">
        <ele>126.08</ele>
        <time>2019-07-14T11:30:12.999Z</time>
      </trkpt>
      <trkpt lat="48.90495" lon="1.75375">
        <ele>125.5</ele>
        <time>2019-07-14T11:30:27.999Z</time>
      </trkpt>
      <trkpt lat="48.90507" lon="1.75396">
        <ele>124.67</ele>
        <time>2019-07-14T11:30:45.999Z</time>
      </trkpt>
      <trkpt lat="48.90518" lon="1.75418">
        <ele>124.05</ele>
        <time>2019-07-14T11:30:58.999Z</time>
      </trkpt>
      <trkpt lat="48.90528" lon="1.75441">
        <ele>123.87</ele>
        <time>2019-07-14T11:31:13.999Z</time>
      </trkpt>
      <trkpt lat="48.90539" lon="1.75463">
        <ele>123.96</ele>
        <time>2019-07-14T11:31:26.999Z</time>
      </trkpt>
      <trkpt lat="48.90552" lon="1.75485">
        <ele>124.42</ele>
        <time>2019-07-14T11:31:41.999Z</time>
      </trkpt>
      <trkpt lat="48.90562" lon="1.75509">
        <ele>124.67</ele>
        <time>2019-07-14T11:31:58.999Z</time>
      </trkpt>
      <trkpt lat="48.90573" lon="1.75532">
        <ele>124.56</ele>
        <time>2019-07-14T11:32:13.999Z</time>
      </trkpt>
      <trkpt lat="48.90584" lon="1.75556">
        <ele>123.81</ele>
        <time>2019-07-14T11:32:29.999Z</time>
      </trkpt>
      <trkpt lat="48.90598" lon="1.75575">
        <ele>123.65</ele>
        <time>2019-07-14T11:32:46.999Z</time>
      </trkpt>
      <trkpt lat="48.90609" lon="1.75597">
        <ele>123.68</ele>
        <time>2019-07-14T11:33:01.999Z</time>
      </trkpt>
      <trkpt lat="48.9062" lon="1.7562">
        <ele>123.8</ele>
        <time>2019-07-14T11:33:14.999Z</time>
      </trkpt>
      <trkpt lat="48.90631" lon="1.75643">
        <ele>124.13</ele>
        <time>2019-07-14T11:33:26.999Z</time>
      </trkpt>
      <trkpt lat="48.90642" lon="1.75667">
        <ele>124.21</ele>
        <time>2019-07-14T11:33:43.999Z</time>
      </trkpt>
      <trkpt lat="48.90655" lon="1.75687">
        <ele>123.97</ele>
        <time>2019-07-14T11:33:58.999Z</time>
      </trkpt>
      <trkpt lat="48.90668" lon="1.75707">
        <ele>122.73</ele>
        <time>2019-07-14T11:34:13.999Z</time>
      </trkpt>
      <trkpt lat="48.90683" lon="1.75724">
        <ele>122.57</ele>
        <time>2019-07-14T11:34:27.999Z</time>
      </trkpt>
      <trkpt lat="48.90698" lon="1.75744">
        <ele>123.03</ele>
        <time>2019-07-14T11:34:41.999Z</time>
      </trkpt>
      <trkpt lat="48.90712" lon="1.75763">
        <ele>123.75</ele>
        <time>2019-07-14T11:34:52.999Z</time>
      </trkpt>
      <trkpt lat="48.90725" lon="1.75782">
        <ele>124.76</ele>
        <time>2019-07-14T11:35:07.999Z</time>
      </trkpt>
      <trkpt lat="48.90739" lon="1.758">
        <ele>124.2</ele>
        <time>2019-07-14T11:35:22.999Z</time>
      </trkpt>
      <trkpt lat="48.90751" lon="1.75822">
        <ele>121.91</ele>
        <time>2019-07-14T11:36:11.999Z</time>
      </trkpt>
      <trkpt lat="48.90762" lon="1.75845">
        <ele>120.95</ele>
        <time>2019-07-14T11:36:33.999Z</time>
      </trkpt>
      <trkpt lat="48.90772" lon="1.75869">
        <ele>121.25</ele>
        <time>2019-07-14T11:36:48.999Z</time>
      </trkpt>
      <trkpt lat="48.90781" lon="1.75894">
        <ele>120.71</ele>
        <time>2019-07-14T11:37:01.999Z</time>
      </trkpt>
      <trkpt lat="48.90791" lon="1.75918">
        <ele>120.25</ele>
        <time>2019-07-14T11:37:15.999Z</time>
      </trkpt>
      <trkpt lat="48.90803" lon="1.7594">
        <ele>120.47</ele>
        <time>2019-07-14T11:37:31.999Z</time>
      </trkpt>
      <trkpt lat="48.90815" lon="1.7596">
        <ele>120.7</ele>
        <time>2019-07-14T11:37:47.999Z</time>
      </trkpt>
      <trkpt lat="48.90826" lon="1.75982">
        <ele>120.4</ele>
        <time>2019-07-14T11:38:01.999Z</time>
      </trkpt>
      <trkpt lat="48.90837" lon="1.76005">
        <ele>119.04</ele>
        <time>2019-07-14T11:38:18.999Z</time>
      </trkpt>
      <trkpt lat="48.90849" lon="1.76026">
        <ele>117.11</ele>
        <time>2019-07-14T11:38:34.999Z</time>
      </trkpt>
      <trkpt lat="48.9086" lon="1.76051">
        <ele>116.32</ele>
        <time>2019-07-14T11:38:49.999Z</time>
      </trkpt>
      <trkpt lat="48.90869" lon="1.76075">
        <ele>116.52</ele>
        <time>2019-07-14T11:39:02.999Z</time>
      </trkpt>
      <trkpt lat="48.90879" lon="1.76098">
        <ele>117.62</ele>
        <time>2019-07-14T11:39:17.999Z</time>
      </trkpt>
      <trkpt lat="48.90889" lon="1.76121">
        <ele>118.83</ele>
        <time>2019-07-14T11:39:31.999Z</time>
      </trkpt>
      <trkpt lat="48.90901" lon="1.76144">
        <ele>120.71</ele>
        <time>2019-07-14T11:39:49.999Z</time>
      </trkpt>
      <trkpt lat="48.90913" lon="1.76164">
        <ele>121.34</ele>
        <time>2019-07-14T11:40:04.999Z</time>
      </trkpt>
      <trkpt lat="48.90922" lon="1.76189">
        <ele>120.71</ele>
        <time>2019-07-14T11:40:19.999Z</time>
      </trkpt>
      <trkpt lat="48.90935" lon="1.7621">
        <ele>119.61</ele>
        <time>2019-07-14T11:40:36.999Z</time>
      </trkpt>
      <trkpt lat="48.90948" lon="1.76231">
        <ele>118.81</ele>
        <time>2019-07-14T11:40:51.999Z</time>
      </trkpt>
      <trkpt lat="48.90957" lon="1.76254">
        <ele>118.77</ele>
        <time>2019-07-14T11:41:03.999Z</time>
      </trkpt>
      <trkpt lat="48.90969" lon="1.76276">
        <ele>119.88</ele>
        <time>2019-07-14T11:41:17.999Z</time>
      </trkpt>
      <trkpt lat="48.9098" lon="1.763">
        <ele>121.81</ele>
        <time>2019-07-14T11:41:31.999Z</time>
      </trkpt>
      <trkpt lat="48.90992" lon="1.76323">
        <ele>122.69</ele>
        <time>2019-07-14T11:41:51.999Z</time>
      </trkpt>
      <trkpt lat="48.91005" lon="1.76342">
        <ele>123.27</ele>
        <time>2019-07-14T11:42:07.999Z</time>
      </trkpt>
      <trkpt lat="48.91014" lon="1.76368">
        <ele>123.93</ele>
        <time>2019-07-14T11:42:20.999Z</time>
      </trkpt>
      <trkpt lat="48.91024" lon="1.76391">
        <ele>124.83</ele>
        <time>2019-07-14T11:42:35.999Z</time>
      </trkpt>
      <trkpt lat="48.91036" lon="1.76413">
        <ele>125.21</ele>
        <time>2019-07-14T11:42:50.999Z</time>
      </trkpt>
      <trkpt lat="48.91047" lon="1.76436">
        <ele>125.33</ele>
        <time>2019-07-14T11:43:10.999Z</time>
      </trkpt>
      <trkpt lat="48.91057" lon="1.76458">
        <ele>124.98</ele>
        <time>2019-07-14T11:43:23.999Z</time>
      </trkpt>
      <trkpt lat="48.91069" lon="1.76479">
        <ele>124.78</ele>
        <time>2019-07-14T11:43:38.999Z</time>
      </trkpt>
      <trkpt lat="48.91081" lon="1.76501">
        <ele>126.17</ele>
        <time>2019-07-14T11:43:56.999Z</time>
      </trkpt>
      <trkpt lat="48.91094" lon="1.76521">
        <ele>127.48</ele>
        <time>2019-07-14T11:44:11.999Z</time>
      </trkpt>
      <trkpt lat="48.91105" lon="1.76544">
        <ele>128.54</ele>
        <time>2019-07-14T11:44:28.999Z</time>
      </trkpt>
      <trkpt lat="48.91116" lon="1.76566">
        <ele>129.06</ele>
        <time>2019-07-14T11:44:43.000Z</time>
      </trkpt>
      <trkpt lat="48.91128" lon="1.76589">
        <ele>129.23</ele>
        <time>2019-07-14T11:44:59.000Z</time>
      </trkpt>
      <trkpt lat="48.9114" lon="1.7661">
        <ele>129.37</ele>
        <time>2019-07-14T11:45:14.000Z</time>
      </trkpt>
      <trkpt lat="48.91152" lon="1.76632">
        <ele>129.22</ele>
        <time>2019-07-14T11:45:28.000Z</time>
      </trkpt>
      <trkpt lat="48.91164" lon="1.76654">
        <ele>129.17</ele>
        <time>2019-07-14T11:45:45.000Z</time>
      </trkpt>
      <trkpt lat="48.91177" lon="1.76676">
        <ele>129.53</ele>
        <time>2019-07-14T11:46:01.000Z</time>
      </trkpt>
      <trkpt lat="48.9119" lon="1.76696">
        <ele>129.96</ele>
        <time>2019-07-14T11:46:16.000Z</time>
      </trkpt>
      <trkpt lat="48.91202" lon="1.76717">
        <ele>130.03</ele>
        <time>2019-07-14T11:46:31.000Z</time>
      </trkpt>
      <trkpt lat="48.91216" lon="1.76737">
        <ele>128.26</ele>
        <time>2019-07-14T11:47:01.000Z</time>
      </trkpt>
      <trkpt lat="48.91227" lon="1.76759">
        <ele>128.57</ele>
        <time>2019-07-14T11:47:20.000Z</time>
      </trkpt>
      <trkpt lat="48.91238" lon="1.76782">
        <ele>130.11</ele>
        <time>2019-07-14T11:47:38.000Z</time>
      </trkpt>
      <trkpt lat="48.9125" lon="1.76804">
        <ele>132.05</ele>
        <time>2019-07-14T11:48:13.000Z</time>
      </trkpt>
      <trkpt lat="48.91264" lon="1.76826">
        <ele>137.46</ele>
        <time>2019-07-14T11:48:32.000Z</time>
      </trkpt>
      <trkpt lat="48.91274" lon="1.7685">
        <ele>140.87</ele>
        <time>2019-07-14T11:48:56.000Z</time>
      </trkpt>
      <trkpt lat="48.91287" lon="1.76872">
        <ele>141.3</ele>
        <time>2019-07-14T11:49:12.000Z</time>
      </trkpt>
      <trkpt lat="48.91299" lon="1.76893">
        <ele>141.12</ele>
        <time>2019-07-14T11:49:23.000Z</time>
      </trkpt>
      <trkpt lat="48.91314" lon="1.76911">
        <ele>141.55</ele>
        <time>2019-07-14T11:49:39.000Z</time>
      </trkpt>
      <trkpt lat="48.91327" lon="1.76931">
        <ele>142.13</ele>
        <time>2019-07-14T11:49:54.000Z</time>
      </trkpt>
      <trkpt lat="48.91339" lon="1.76954">
        <ele>142.5</ele>
        <time>2019-07-14T11:50:09.000Z</time>
      </trkpt>
      <trkpt lat="48.91351" lon="1.76976">
        <ele>141.17</ele>
        <time>2019-07-14T11:50:31.000Z</time>
      </trkpt>
      <trkpt lat="48.91365" lon="1.76995">
        <ele>137.67</ele>
        <time>2019-07-14T11:51:44.000Z</time>
      </trkpt>
      <trkpt lat="48.91376" lon="1.77018">
        <ele>135.83</ele>
        <time>2019-07-14T11:52:01.000Z</time>
      </trkpt>
      <trkpt lat="48.91388" lon="1.7704">
        <ele>134.27</ele>
        <time>2019-07-14T11:52:18.000Z</time>
      </trkpt>
      <trkpt lat="48.91401" lon="1.77062">
        <ele>132.57</ele>
        <time>2019-07-14T11:52:41.000Z</time>
      </trkpt>
      <trkpt lat="48.91413" lon="1.77082">
        <ele>131.86</ele>
        <time>2019-07-14T11:52:57.000Z</time>
      </trkpt>
      <trkpt lat="48.91425" lon="1.77103">
        <ele>131.47</ele>
        <time>2019-07-14T11:53:11.000Z</time>
      </trkpt>
      <trkpt lat="48.91438" lon="1.77123">
        <ele>131.05</ele>
        <time>2019-07-14T11:53:27.000Z</time>
      </trkpt>
      <trkpt lat="48.91451" lon="1.77144">
        <ele>130.66</ele>
        <time>2019-07-14T11:53:41.000Z</time>
      </trkpt>
      <trkpt lat="48.91464" lon="1.77164">
        <ele>129.98</ele>
        <time>2019-07-14T11:53:58.000Z</time>
      </trkpt>
      <trkpt lat="48.91476" lon="1.77185">
        <ele>129.97</ele>
        <time>2019-07-14T11:54:12.000Z</time>
      </trkpt>
      <trkpt lat="48.9149" lon="1.77205">
        <ele>130.33</ele>
        <time>2019-07-14T11:54:27.000Z</time>
      </trkpt>
      <trkpt lat="48.91503" lon="1.77225">
        <ele>130</ele>
        <time>2019-07-14T11:54:43.000Z</time>
      </trkpt>
      <trkpt lat="48.91515" lon="1.77246">
        <ele>129.66</ele>
        <time>2019-07-14T11:54:58.000Z</time>
      </trkpt>
      <trkpt lat="48.91529" lon="1.77267">
        <ele>128.59</ele>
        <time>2019-07-14T11:55:16.000Z</time>
      </trkpt>
      <trkpt lat="48.91543" lon="1.77287">
        <ele>127.5</ele>
        <time>2019-07-14T11:55:31.000Z</time>
      </trkpt>
      <trkpt lat="48.91558" lon="1.77303">
        <ele>127.06</ele>
        <time>2019-07-14T11:55:46.000Z</time>
      </trkpt>
      <trkpt lat="48.91572" lon="1.77322">
        <ele>127.21</ele>
        <time>2019-07-14T11:56:01.000Z</time>
      </trkpt>
      <trkpt lat="48.91588" lon="1.77337">
        <ele>127.79</ele>
        <time>2019-07-14T11:56:16.000Z</time>
      </trkpt>
      <trkpt lat="48.91602" lon="1.77355">
        <ele>128.53</ele>
        <time>2019-07-14T11:56:31.000Z</time>
      </trkpt>
      <trkpt lat="48.91617" lon="1.77372">
        <ele>129.14</ele>
        <time>2019-07-14T11:56:46.000Z</time>
      </trkpt>
      <trkpt lat="48.91635" lon="1.7738">
        <ele>127.85</ele>
        <time>2019-07-14T11:59:30.000Z</time>
      </trkpt>
      <trkpt lat="48.9165" lon="1.77397">
        <ele>126.16</ele>
        <time>2019-07-14T11:59:41.999Z</time>
      </trkpt>
      <trkpt lat="48.91663" lon="1.77417">
        <ele>125.72</ele>
        <time>2019-07-14T12:00:01.999Z</time>
      </trkpt>
      <trkpt lat="48.91677" lon="1.77437">
        <ele>127.61</ele>
        <time>2019-07-14T12:00:17.999Z</time>
      </trkpt>
      <trkpt lat="48.91691" lon="1.77455">
        <ele>130.32</ele>
        <time>2019-07-14T12:00:32.999Z</time>
      </trkpt>
      <trkpt lat="48.91704" lon="1.77473">
        <ele>132.51</ele>
        <time>2019-07-14T12:00:46.999Z</time>
      </trkpt>
      <trkpt lat="48.9172" lon="1.77492">
        <ele>134.75</ele>
        <time>2019-07-14T12:01:04.999Z</time>
      </trkpt>
      <trkpt lat="48.91734" lon="1.7751">
        <ele>136.11</ele>
        <time>2019-07-14T12:01:16.999Z</time>
      </trkpt>
      <trkpt lat="48.91748" lon="1.77528">
        <ele>139.05</ele>
        <time>2019-07-14T12:01:32.999Z</time>
      </trkpt>
      <trkpt lat="48.9176" lon="1.77548">
        <ele>140.91</ele>
        <time>2019-07-14T12:01:48.999Z</time>
      </trkpt>
      <trkpt lat="48.91774" lon="1.77566">
        <ele>134.53</ele>
        <time>2019-07-14T12:03:16.999Z</time>
      </trkpt>
      <trkpt lat="48.9179" lon="1.77579">
        <ele>133.02</ele>
        <time>2019-07-14T12:03:38.999Z</time>
      </trkpt>
      <trkpt lat="48.91807" lon="1.77593">
        <ele>132.41</ele>
        <time>2019-07-14T12:03:54.999Z</time>
      </trkpt>
      <trkpt lat="48.91825" lon="1.77605">
        <ele>132.28</ele>
        <time>2019-07-14T12:04:18.999Z</time>
      </trkpt>
      <trkpt lat="48.91842" lon="1.77615">
        <ele>132.99</ele>
        <time>2019-07-14T12:04:31.999Z</time>
      </trkpt>
      <trkpt lat="48.91859" lon="1.77626">
        <ele>133.02</ele>
        <time>2019-07-14T12:04:50.999Z</time>
      </trkpt>
      <trkpt lat="48.91877" lon="1.77635">
        <ele>133.17</ele>
        <time>2019-07-14T12:05:05.999Z</time>
      </trkpt>
      <trkpt lat="48.91894" lon="1.77646">
        <ele>133.44</ele>
        <time>2019-07-14T12:05:19.999Z</time>
      </trkpt>
      <trkpt lat="48.91911" lon="1.77658">
        <ele>133.57</ele>
        <time>2019-07-14T12:05:35.999Z</time>
      </trkpt>
      <trkpt lat="48.9193" lon="1.77668">
        <ele>133.44</ele>
        <time>2019-07-14T12:05:56.999Z</time>
      </trkpt>
      <trkpt lat="48.91945" lon="1.77684">
        <ele>132.36</ele>
        <time>2019-07-14T12:06:11.999Z</time>
      </trkpt>
      <trkpt lat="48.91961" lon="1.77697">
        <ele>129.77</ele>
        <time>2019-07-14T12:06:28.999Z</time>
      </trkpt>
      <trkpt lat="48.91974" lon="1.77717">
        <ele>127.42</ele>
        <time>2019-07-14T12:06:45.999Z</time>
      </trkpt>
      <trkpt lat="48.9199" lon="1.77733">
        <ele>125.79</ele>
        <time>2019-07-14T12:07:03.999Z</time>
      </trkpt>
      <trkpt lat="48.92006" lon="1.7775">
        <ele>126.44</ele>
        <time>2019-07-14T12:07:18.999Z</time>
      </trkpt>
      <trkpt lat="48.92019" lon="1.7777">
        <ele>125.76</ele>
        <time>2019-07-14T12:07:34.999Z</time>
      </trkpt>
      <trkpt lat="48.92033" lon="1.77789">
        <ele>124.83</ele>
        <time>2019-07-14T12:07:48.999Z</time>
      </trkpt>
      <trkpt lat="48.92046" lon="1.77808">
        <ele>124.55</ele>
        <time>2019-07-14T12:08:03.999Z</time>
      </trkpt>
      <trkpt lat="48.92061" lon="1.77827">
        <ele>123.91</ele>
        <time>2019-07-14T12:08:17.999Z</time>
      </trkpt>
      <trkpt lat="48.92076" lon="1.77844">
        <ele>122.72</ele>
        <time>2019-07-14T12:08:34.999Z</time>
      </trkpt>
      <trkpt lat="48.92092" lon="1.7786">
        <ele>121.59</ele>
        <time>2019-07-14T12:08:50.999Z</time>
      </trkpt>
      <trkpt lat="48.92109" lon="1.77873">
        <ele>120.82</ele>
        <time>2019-07-14T12:09:06.999Z</time>
      </trkpt>
      <trkpt lat="48.92122" lon="1.77891">
        <ele>120.43</ele>
        <time>2019-07-14T12:09:21.999Z</time>
      </trkpt>
      <trkpt lat="48.92137" lon="1.77906">
        <ele>119.52</ele>
        <time>2019-07-14T12:09:37.999Z</time>
      </trkpt>
      <trkpt lat="48.9215" lon="1.77927">
        <ele>116.97</ele>
        <time>2019-07-14T12:09:53.999Z</time>
      </trkpt>
      <trkpt lat="48.92163" lon="1.77947">
        <ele>115.37</ele>
        <time>2019-07-14T12:10:05.999Z</time>
      </trkpt>
      <trkpt lat="48.92176" lon="1.77967">
        <ele>112.63</ele>
        <time>2019-07-14T12:10:24.999Z</time>
      </trkpt>
      <trkpt lat="48.92187" lon="1.77989">
        <ele>109.93</ele>
        <time>2019-07-14T12:10:38.999Z</time>
      </trkpt>
      <trkpt lat="48.92199" lon="1.78012">
        <ele>107.97</ele>
        <time>2019-07-14T12:10:58.999Z</time>
      </trkpt>
      <trkpt lat="48.9221" lon="1.78036">
        <ele>108.11</ele>
        <time>2019-07-14T12:11:19.999Z</time>
      </trkpt>
      <trkpt lat="48.92226" lon="1.7805">
        <ele>108.86</ele>
        <time>2019-07-14T12:11:28.999Z</time>
      </trkpt>
      <trkpt lat="48.92242" lon="1.78067">
        <ele>107.94</ele>
        <time>2019-07-14T12:11:49.999Z</time>
      </trkpt>
      <trkpt lat="48.92256" lon="1.78084">
        <ele>104.72</ele>
        <time>2019-07-14T12:12:06.999Z</time>
      </trkpt>
      <trkpt lat="48.9227" lon="1.78104">
        <ele>102.05</ele>
        <time>2019-07-14T12:12:21.999Z</time>
      </trkpt>
      <trkpt lat="48.92283" lon="1.78125">
        <ele>98.61</ele>
        <time>2019-07-14T12:12:38.999Z</time>
      </trkpt>
      <trkpt lat="48.92297" lon="1.78143">
        <ele>92.27</ele>
        <time>2019-07-14T12:13:50.999Z</time>
      </trkpt>
      <trkpt lat="48.92309" lon="1.78163">
        <ele>91.18</ele>
        <time>2019-07-14T12:14:05.999Z</time>
      </trkpt>
      <trkpt lat="48.92318" lon="1.78187">
        <ele>90.71</ele>
        <time>2019-07-14T12:14:39.000Z</time>
      </trkpt>
      <trkpt lat="48.92329" lon="1.78211">
        <ele>90.19</ele>
        <time>2019-07-14T12:14:55.000Z</time>
      </trkpt>
      <trkpt lat="48.92339" lon="1.78234">
        <ele>89.45</ele>
        <time>2019-07-14T12:15:10.000Z</time>
      </trkpt>
      <trkpt lat="48.92349" lon="1.78258">
        <ele>88.65</ele>
        <time>2019-07-14T12:15:26.000Z</time>
      </trkpt>
      <trkpt lat="48.92363" lon="1.78278">
        <ele>88.24</ele>
        <time>2019-07-14T12:15:41.000Z</time>
      </trkpt>
      <trkpt lat="48.9238" lon="1.78293">
        <ele>88.48</ele>
        <time>2019-07-14T12:16:00.000Z</time>
      </trkpt>
      <trkpt lat="48.92396" lon="1.78306">
        <ele>88.7</ele>
        <time>2019-07-14T12:16:17.000Z</time>
      </trkpt>
      <trkpt lat="48.92412" lon="1.7832">
        <ele>89.24</ele>
        <time>2019-07-14T12:16:36.000Z</time>
      </trkpt>
      <trkpt lat="48.92429" lon="1.78331">
        <ele>89.92</ele>
        <time>2019-07-14T12:16:52.000Z</time>
      </trkpt>
      <trkpt lat="48.92446" lon="1.78345">
        <ele>89.99</ele>
        <time>2019-07-14T12:17:12.000Z</time>
      </trkpt>
      <trkpt lat="48.92456" lon="1.78367">
        <ele>91.98</ele>
        <time>2019-07-14T12:17:34.000Z</time>
      </trkpt>
      <trkpt lat="48.92469" lon="1.7839">
        <ele>95.51</ele>
        <time>2019-07-14T12:17:59.000Z</time>
      </trkpt>
      <trkpt lat="48.92479" lon="1.78414">
        <ele>97.73</ele>
        <time>2019-07-14T12:18:16.000Z</time>
      </trkpt>
      <trkpt lat="48.92493" lon="1.78432">
        <ele>98.76</ele>
        <time>2019-07-14T12:18:38.000Z</time>
      </trkpt>
      <trkpt lat="48.92507" lon="1.78451">
        <ele>100.5</ele>
        <time>2019-07-14T12:18:58.000Z</time>
      </trkpt>
      <trkpt lat="48.92523" lon="1.78464">
        <ele>102.41</ele>
        <time>2019-07-14T12:19:07.000Z</time>
      </trkpt>
      <trkpt lat="48.92523" lon="1.78492">
        <ele>120.49</ele>
        <time>2019-07-14T12:26:45.000Z</time>
      </trkpt>
      <trkpt lat="48.92528" lon="1.78519">
        <ele>120.08</ele>
        <time>2019-07-14T12:27:10.000Z</time>
      </trkpt>
      <trkpt lat="48.92536" lon="1.78545">
        <ele>119.62</ele>
        <time>2019-07-14T12:27:27.000Z</time>
      </trkpt>
      <trkpt lat="48.92546" lon="1.7857">
        <ele>120.22</ele>
        <time>2019-07-14T12:27:44.000Z</time>
      </trkpt>
      <trkpt lat="48.92556" lon="1.78594">
        <ele>121.26</ele>
        <time>2019-07-14T12:28:03.000Z</time>
      </trkpt>
      <trkpt lat="48.92565" lon="1.78619">
        <ele>122.35</ele>
        <time>2019-07-14T12:28:20.000Z</time>
      </trkpt>
      <trkpt lat="48.92575" lon="1.78642">
        <ele>122.43</ele>
        <time>2019-07-14T12:28:37.000Z</time>
      </trkpt>
      <trkpt lat="48.92585" lon="1.78666">
        <ele>123.02</ele>
        <time>2019-07-14T12:28:51.000Z</time>
      </trkpt>
      <trkpt lat="48.92597" lon="1.78688">
        <ele>125.26</ele>
        <time>2019-07-14T12:29:09.000Z</time>
      </trkpt>
      <trkpt lat="48.926" lon="1.78716">
        <ele>127.55</ele>
        <time>2019-07-14T12:29:29.999Z</time>
      </trkpt>
      <trkpt lat="48.92587" lon="1.78735">
        <ele>128.87</ele>
        <time>2019-07-14T12:29:42.999Z</time>
      </trkpt>
      <trkpt lat="48.92575" lon="1.78757">
        <ele>130</ele>
        <time>2019-07-14T12:29:56.999Z</time>
      </trkpt>
      <trkpt lat="48.9256" lon="1.78776">
        <ele>131.04</ele>
        <time>2019-07-14T12:30:13.999Z</time>
      </trkpt>
      <trkpt lat="48.92547" lon="1.78795">
        <ele>131.22</ele>
        <time>2019-07-14T12:30:28.999Z</time>
      </trkpt>
      <trkpt lat="48.92532" lon="1.78815">
        <ele>130.92</ele>
        <time>2019-07-14T12:30:42.999Z</time>
      </trkpt>
      <trkpt lat="48.92517" lon="1.78832">
        <ele>130.01</ele>
        <time>2019-07-14T12:30:58.999Z</time>
      </trkpt>
      <trkpt lat="48.92502" lon="1.78848">
        <ele>129.68</ele>
        <time>2019-07-14T12:31:13.999Z</time>
      </trkpt>
      <trkpt lat="48.92488" lon="1.78867">
        <ele>129.07</ele>
        <time>2019-07-14T12:31:28.999Z</time>
      </trkpt>
      <trkpt lat="48.92475" lon="1.78886">
        <ele>129</ele>
        <time>2019-07-14T12:31:45.999Z</time>
      </trkpt>
      <trkpt lat="48.92461" lon="1.78906">
        <ele>129.5</ele>
        <time>2019-07-14T12:32:04.999Z</time>
      </trkpt>
      <trkpt lat="48.92448" lon="1.78925">
        <ele>126.96</ele>
        <time>2019-07-14T12:32:20.999Z</time>
      </trkpt>
      <trkpt lat="48.92433" lon="1.78942">
        <ele>126.37</ele>
        <time>2019-07-14T12:32:35.999Z</time>
      </trkpt>
      <trkpt lat="48.92418" lon="1.7896">
        <ele>126.42</ele>
        <time>2019-07-14T12:32:50.999Z</time>
      </trkpt>
      <trkpt lat="48.92403" lon="1.78976">
        <ele>126.01</ele>
        <time>2019-07-14T12:33:03.999Z</time>
      </trkpt>
      <trkpt lat="48.92389" lon="1.78995">
        <ele>125.38</ele>
        <time>2019-07-14T12:33:20.999Z</time>
      </trkpt>
      <trkpt lat="48.92376" lon="1.79015">
        <ele>125.18</ele>
        <time>2019-07-14T12:33:37.999Z</time>
      </trkpt>
      <trkpt lat="48.9236" lon="1.79031">
        <ele>124.65</ele>
        <time>2019-07-14T12:33:52.999Z</time>
      </trkpt>
      <trkpt lat="48.92345" lon="1.79048">
        <ele>123.01</ele>
        <time>2019-07-14T12:34:10.999Z</time>
      </trkpt>
      <trkpt lat="48.9233" lon="1.79067">
        <ele>121.46</ele>
        <time>2019-07-14T12:34:24.999Z</time>
      </trkpt>
      <trkpt lat="48.92317" lon="1.79085">
        <ele>120.71</ele>
        <time>2019-07-14T12:34:38.999Z</time>
      </trkpt>
      <trkpt lat="48.92304" lon="1.79105">
        <ele>120.99</ele>
        <time>2019-07-14T12:34:56.999Z</time>
      </trkpt>
      <trkpt lat="48.92294" lon="1.79129">
        <ele>120.54</ele>
        <time>2019-07-14T12:35:10.999Z</time>
      </trkpt>
      <trkpt lat="48.92281" lon="1.79149">
        <ele>120.35</ele>
        <time>2019-07-14T12:35:28.999Z</time>
      </trkpt>
      <trkpt lat="48.92267" lon="1.79167">
        <ele>119.45</ele>
        <time>2019-07-14T12:35:49.999Z</time>
      </trkpt>
      <trkpt lat="48.9225" lon="1.7918">
        <ele>118.63</ele>
        <time>2019-07-14T12:36:03.999Z</time>
      </trkpt>
      <trkpt lat="48.92234" lon="1.79191">
        <ele>118.3</ele>
        <time>2019-07-14T12:36:17.999Z</time>
      </trkpt>
      <trkpt lat="48.92216" lon="1.79203">
        <ele>117.81</ele>
        <time>2019-07-14T12:36:30.999Z</time>
      </trkpt>
      <trkpt lat="48.92198" lon="1.79214">
        <ele>116.82</ele>
        <time>2019-07-14T12:36:46.999Z</time>
      </trkpt>
      <trkpt lat="48.9218" lon="1.79223">
        <ele>116.11</ele>
        <time>2019-07-14T12:37:01.999Z</time>
      </trkpt>
      <trkpt lat="48.92162" lon="1.79227">
        <ele>115.61</ele>
        <time>2019-07-14T12:37:17.999Z</time>
      </trkpt>
      <trkpt lat="48.92159" lon="1.79254">
        <ele>113.49</ele>
        <time>2019-07-14T12:37:51.999Z</time>
      </trkpt>
      <trkpt lat="48.92173" lon="1.79274">
        <ele>114.11</ele>
        <time>2019-07-14T12:38:03.999Z</time>
      </trkpt>
      <trkpt lat="48.92189" lon="1.79291">
        <ele>114.99</ele>
        <time>2019-07-14T12:38:16.999Z</time>
      </trkpt>
      <trkpt lat="48.92202" lon="1.79313">
        <ele>115.72</ele>
        <time>2019-07-14T12:38:35.999Z</time>
      </trkpt>
      <trkpt lat="48.92214" lon="1.79334">
        <ele>115.95</ele>
        <time>2019-07-14T12:38:52.999Z</time>
      </trkpt>
      <trkpt lat="48.92229" lon="1.7935">
        <ele>116.11</ele>
        <time>2019-07-14T12:39:07.999Z</time>
      </trkpt>
      <trkpt lat="48.92244" lon="1.79366">
        <ele>117.45</ele>
        <time>2019-07-14T12:39:25.999Z</time>
      </trkpt>
      <trkpt lat="48.92258" lon="1.79383">
        <ele>118.53</ele>
        <time>2019-07-14T12:39:40.999Z</time>
      </trkpt>
      <trkpt lat="48.9227" lon="1.79405">
        <ele>119.34</ele>
        <time>2019-07-14T12:39:58.999Z</time>
      </trkpt>
      <trkpt lat="48.92281" lon="1.79428">
        <ele>121.2</ele>
        <time>2019-07-14T12:40:19.999Z</time>
      </trkpt>
      <trkpt lat="48.92296" lon="1.79444">
        <ele>121.77</ele>
        <time>2019-07-14T12:40:34.999Z</time>
      </trkpt>
      <trkpt lat="48.92314" lon="1.79454">
        <ele>122.74</ele>
        <time>2019-07-14T12:40:46.999Z</time>
      </trkpt>
      <trkpt lat="48.92331" lon="1.79469">
        <ele>123.45</ele>
        <time>2019-07-14T12:40:59.999Z</time>
      </trkpt>
      <trkpt lat="48.92346" lon="1.79487">
        <ele>124.66</ele>
        <time>2019-07-14T12:41:47.999Z</time>
      </trkpt>
      <trkpt lat="48.92361" lon="1.79506">
        <ele>125.18</ele>
        <time>2019-07-14T12:42:00.999Z</time>
      </trkpt>
      <trkpt lat="48.92376" lon="1.79523">
        <ele>125.86</ele>
        <time>2019-07-14T12:42:13.999Z</time>
      </trkpt>
      <trkpt lat="48.9239" lon="1.79542">
        <ele>126</ele>
        <time>2019-07-14T12:42:33.999Z</time>
      </trkpt>
      <trkpt lat="48.92404" lon="1.79561">
        <ele>126.39</ele>
        <time>2019-07-14T12:42:50.999Z</time>
      </trkpt>
      <trkpt lat="48.92419" lon="1.7958">
        <ele>126.32</ele>
        <time>2019-07-14T12:43:05.999Z</time>
      </trkpt>
      <trkpt lat="48.92434" lon="1.79596">
        <ele>125.7</ele>
        <time>2019-07-14T12:43:22.999Z</time>
      </trkpt>
      <trkpt lat="48.92446" lon="1.79618">
        <ele>125.73</ele>
        <time>2019-07-14T12:43:52.999Z</time>
      </trkpt>
      <trkpt lat="48.92439" lon="1.79644">
        <ele>127.48</ele>
        <time>2019-07-14T12:44:13.999Z</time>
      </trkpt>
      <trkpt lat="48.92429" lon="1.79668">
        <ele>127.8</ele>
        <time>2019-07-14T12:44:35.000Z</time>
      </trkpt>
      <trkpt lat="48.92422" lon="1.79694">
        <ele>127.07</ele>
        <time>2019-07-14T12:44:54.000Z</time>
      </trkpt>
      <trkpt lat="48.92413" lon="1.7972">
        <ele>125.38</ele>
        <time>2019-07-14T12:45:11.000Z</time>
      </trkpt>
      <trkpt lat="48.924" lon="1.79739">
        <ele>124.75</ele>
        <time>2019-07-14T12:45:28.000Z</time>
      </trkpt>
      <trkpt lat="48.92393" lon="1.79766">
        <ele>124.45</ele>
        <time>2019-07-14T12:45:42.000Z</time>
      </trkpt>
      <trkpt lat="48.92384" lon="1.79791">
        <ele>124.86</ele>
        <time>2019-07-14T12:45:58.000Z</time>
      </trkpt>
      <trkpt lat="48.9237" lon="1.79809">
        <ele>125.12</ele>
        <time>2019-07-14T12:46:17.000Z</time>
      </trkpt>
      <trkpt lat="48.92356" lon="1.79827">
        <ele>124.1</ele>
        <time>2019-07-14T12:46:36.000Z</time>
      </trkpt>
      <trkpt lat="48.92342" lon="1.79853">
        <ele>122.85</ele>
        <time>2019-07-14T12:46:47.000Z</time>
      </trkpt>
      <trkpt lat="48.92328" lon="1.79871">
        <ele>122.37</ele>
        <time>2019-07-14T12:46:59.000Z</time>
      </trkpt>
      <trkpt lat="48.92315" lon="1.7989">
        <ele>122.35</ele>
        <time>2019-07-14T12:47:15.000Z</time>
      </trkpt>
      <trkpt lat="48.923" lon="1.79907">
        <ele>121.19</ele>
        <time>2019-07-14T12:47:34.000Z</time>
      </trkpt>
      <trkpt lat="48.92288" lon="1.7993">
        <ele>119.32</ele>
        <time>2019-07-14T12:47:47.000Z</time>
      </trkpt>
      <trkpt lat="48.92279" lon="1.79954">
        <ele>117.89</ele>
        <time>2019-07-14T12:48:08.000Z</time>
      </trkpt>
      <trkpt lat="48.92266" lon="1.79975">
        <ele>117.59</ele>
        <time>2019-07-14T12:48:19.000Z</time>
      </trkpt>
      <trkpt lat="48.92256" lon="1.79999">
        <ele>118.32</ele>
        <time>2019-07-14T12:48:37.000Z</time>
      </trkpt>
      <trkpt lat="48.92248" lon="1.80025">
        <ele>119.68</ele>
        <time>2019-07-14T12:48:57.000Z</time>
      </trkpt>
      <trkpt lat="48.92243" lon="1.80052">
        <ele>120.21</ele>
        <time>2019-07-14T12:49:11.000Z</time>
      </trkpt>
      <trkpt lat="48.92247" lon="1.80079">
        <ele>122.19</ele>
        <time>2019-07-14T12:49:27.000Z</time>
      </trkpt>
      <trkpt lat="48.92255" lon="1.80103">
        <ele>124.06</ele>
        <time>2019-07-14T12:49:44.000Z</time>
      </trkpt>
      <trkpt lat="48.9226" lon="1.8013">
        <ele>124.12</ele>
        <time>2019-07-14T12:49:56.000Z</time>
      </trkpt>
      <trkpt lat="48.92259" lon="1.80159">
        <ele>125.1</ele>
        <time>2019-07-14T12:50:16.000Z</time>
      </trkpt>
      <trkpt lat="48.92247" lon="1.8018">
        <ele>125.17</ele>
        <time>2019-07-14T12:50:34.000Z</time>
      </trkpt>
      <trkpt lat="48.92231" lon="1.80193">
        <ele>123.94</ele>
        <time>2019-07-14T12:50:55.000Z</time>
      </trkpt>
      <trkpt lat="48.92227" lon="1.8022">
        <ele>124.59</ele>
        <time>2019-07-14T12:51:12.000Z</time>
      </trkpt>
      <trkpt lat="48.92224" lon="1.80249">
        <ele>125.3</ele>
        <time>2019-07-14T12:51:31.000Z</time>
      </trkpt>
      <trkpt lat="48.9222" lon="1.80276">
        <ele>123.66</ele>
        <time>2019-07-14T12:51:47.000Z</time>
      </trkpt>
      <trkpt lat="48.92221" lon="1.80305">
        <ele>123.02</ele>
        <time>2019-07-14T12:52:05.000Z</time>
      </trkpt>
      <trkpt lat="48.92222" lon="1.80332">
        <ele>122.88</ele>
        <time>2019-07-14T12:52:23.000Z</time>
      </trkpt>
      <trkpt lat="48.92218" lon="1.8036">
        <ele>124.4</ele>
        <time>2019-07-14T12:52:38.000Z</time>
      </trkpt>
      <trkpt lat="48.92212" lon="1.80387">
        <ele>126.21</ele>
        <time>2019-07-14T12:52:57.000Z</time>
      </trkpt>
      <trkpt lat="48.92208" lon="1.80415">
        <ele>126.67</ele>
        <time>2019-07-14T12:53:09.000Z</time>
      </trkpt>
      <trkpt lat="48.92208" lon="1.80443">
        <ele>127.02</ele>
        <time>2019-07-14T12:53:27.000Z</time>
      </trkpt>
      <trkpt lat="48.92208" lon="1.80471">
        <ele>126.48</ele>
        <time>2019-07-14T12:53:47.000Z</time>
      </trkpt>
      <trkpt lat="48.92205" lon="1.80498">
        <ele>125.08</ele>
        <time>2019-07-14T12:54:03.000Z</time>
      </trkpt>
      <trkpt lat="48.922" lon="1.80524">
        <ele>123.39</ele>
        <time>2019-07-14T12:54:18.000Z</time>
      </trkpt>
      <trkpt lat="48.92191" lon="1.80554">
        <ele>122.54</ele>
        <time>2019-07-14T12:54:32.000Z</time>
      </trkpt>
      <trkpt lat="48.92184" lon="1.80579">
        <ele>122.68</ele>
        <time>2019-07-14T12:54:47.000Z</time>
      </trkpt>
      <trkpt lat="48.92174" lon="1.80603">
        <ele>123.82</ele>
        <time>2019-07-14T12:55:28.000Z</time>
      </trkpt>
      <trkpt lat="48.92166" lon="1.80627">
        <ele>133.99</ele>
        <time>2019-07-14T13:01:30.999Z</time>
      </trkpt>
      <trkpt lat="48.92154" lon="1.8065">
        <ele>133.87</ele>
        <time>2019-07-14T13:01:44.999Z</time>
      </trkpt>
      <trkpt lat="48.92142" lon="1.80671">
        <ele>133.73</ele>
        <time>2019-07-14T13:02:02.999Z</time>
      </trkpt>
      <trkpt lat="48.92129" lon="1.80691">
        <ele>132.99</ele>
        <time>2019-07-14T13:02:19.999Z</time>
      </trkpt>
      <trkpt lat="48.92118" lon="1.80714">
        <ele>133.1</ele>
        <time>2019-07-14T13:02:34.999Z</time>
      </trkpt>
      <trkpt lat="48.92111" lon="1.8074">
        <ele>132.92</ele>
        <time>2019-07-14T13:02:49.999Z</time>
      </trkpt>
      <trkpt lat="48.92103" lon="1.80764">
        <ele>133.49</ele>
        <time>2019-07-14T13:03:02.999Z</time>
      </trkpt>
      <trkpt lat="48.92097" lon="1.8079">
        <ele>134.79</ele>
        <time>2019-07-14T13:03:17.999Z</time>
      </trkpt>
      <trkpt lat="48.92094" lon="1.80818">
        <ele>136.25</ele>
        <time>2019-07-14T13:03:31.999Z</time>
      </trkpt>
      <trkpt lat="48.92096" lon="1.80846">
        <ele>136.75</ele>
        <time>2019-07-14T13:03:48.999Z</time>
      </trkpt>
      <trkpt lat="48.92093" lon="1.80876">
        <ele>135.88</ele>
        <time>2019-07-14T13:04:02.999Z</time>
      </trkpt>
      <trkpt lat="48.92103" lon="1.809">
        <ele>135.3</ele>
        <time>2019-07-14T13:05:15.999Z</time>
      </trkpt>
      <trkpt lat="48.92118" lon="1.80915">
        <ele>135.46</ele>
        <time>2019-07-14T13:05:37.999Z</time>
      </trkpt>
      <trkpt lat="48.92121" lon="1.80944">
        <ele>133.22</ele>
        <time>2019-07-14T13:05:57.999Z</time>
      </trkpt>
      <trkpt lat="48.92126" lon="1.80972">
        <ele>133.03</ele>
        <time>2019-07-14T13:06:14.999Z</time>
      </trkpt>
      <trkpt lat="48.92127" lon="1.81">
        <ele>132.12</ele>
        <time>2019-07-14T13:06:31.999Z</time>
      </trkpt>
      <trkpt lat="48.92137" lon="1.81026">
        <ele>130.66</ele>
        <time>2019-07-14T13:06:44.999Z</time>
      </trkpt>
      <trkpt lat="48.92139" lon="1.81053">
        <ele>129.95</ele>
        <time>2019-07-14T13:06:58.999Z</time>
      </trkpt>
      <trkpt lat="48.92146" lon="1.81078">
        <ele>129.62</ele>
        <time>2019-07-14T13:07:11.999Z</time>
      </trkpt>
      <trkpt lat="48.9215" lon="1.81107">
        <ele>129.64</ele>
        <time>2019-07-14T13:07:29.999Z</time>
      </trkpt>
      <trkpt lat="48.92156" lon="1.81133">
        <ele>129.31</ele>
        <time>2019-07-14T13:07:45.999Z</time>
      </trkpt>
      <trkpt lat="48.9216" lon="1.8116">
        <ele>128.85</ele>
        <time>2019-07-14T13:08:00.999Z</time>
      </trkpt>
      <trkpt lat="48.92165" lon="1.81186">
        <ele>127.92</ele>
        <time>2019-07-14T13:08:14.999Z</time>
      </trkpt>
      <trkpt lat="48.92171" lon="1.81213">
        <ele>127.38</ele>
        <time>2019-07-14T13:08:29.999Z</time>
      </trkpt>
      <trkpt lat="48.92176" lon="1.81241">
        <ele>127.63</ele>
        <time>2019-07-14T13:08:44.999Z</time>
      </trkpt>
      <trkpt lat="48.92179" lon="1.8127">
        <ele>128.44</ele>
        <time>2019-07-14T13:08:59.999Z</time>
      </trkpt>
      <trkpt lat="48.92184" lon="1.81298">
        <ele>129.37</ele>
        <time>2019-07-14T13:09:15.999Z</time>
      </trkpt>
      <trkpt lat="48.92189" lon="1.81324">
        <ele>130.56</ele>
        <time>2019-07-14T13:09:31.999Z</time>
      </trkpt>
      <trkpt lat="48.92195" lon="1.81351">
        <ele>131.19</ele>
        <time>2019-07-14T13:09:46.999Z</time>
      </trkpt>
      <trkpt lat="48.92199" lon="1.81379">
        <ele>131.08</ele>
        <time>2019-07-14T13:10:00.999Z</time>
      </trkpt>
      <trkpt lat="48.92206" lon="1.81407">
        <ele>132.53</ele>
        <time>2019-07-14T13:13:13.999Z</time>
      </trkpt>
      <trkpt lat="48.92207" lon="1.81434">
        <ele>132.26</ele>
        <time>2019-07-14T13:13:29.999Z</time>
      </trkpt>
      <trkpt lat="48.92213" lon="1.81461">
        <ele>131.43</ele>
        <time>2019-07-14T13:13:48.999Z</time>
      </trkpt>
      <trkpt lat="48.92215" lon="1.81489">
        <ele>131.33</ele>
        <time>2019-07-14T13:14:03.999Z</time>
      </trkpt>
      <trkpt lat="48.92218" lon="1.81516">
        <ele>131.53</ele>
        <time>2019-07-14T13:14:20.000Z</time>
      </trkpt>
      <trkpt lat="48.9222" lon="1.81545">
        <ele>131.58</ele>
        <time>2019-07-14T13:14:35.000Z</time>
      </trkpt>
      <trkpt lat="48.92226" lon="1.81572">
        <ele>131.31</ele>
        <time>2019-07-14T13:14:52.000Z</time>
      </trkpt>
      <trkpt lat="48.92231" lon="1.816">
        <ele>132.26</ele>
        <time>2019-07-14T13:15:10.000Z</time>
      </trkpt>
      <trkpt lat="48.92233" lon="1.81629">
        <ele>132.74</ele>
        <time>2019-07-14T13:15:28.000Z</time>
      </trkpt>
      <trkpt lat="48.92235" lon="1.81658">
        <ele>132.45</ele>
        <time>2019-07-14T13:15:45.000Z</time>
      </trkpt>
      <trkpt lat="48.92239" lon="1.81685">
        <ele>132.06</ele>
        <time>2019-07-14T13:16:03.000Z</time>
      </trkpt>
      <trkpt lat="48.92244" lon="1.81712">
        <ele>131.49</ele>
        <time>2019-07-14T13:16:18.000Z</time>
      </trkpt>
      <trkpt lat="48.92254" lon="1.81736">
        <ele>131.76</ele>
        <time>2019-07-14T13:16:31.000Z</time>
      </trkpt>
      <trkpt lat="48.92261" lon="1.81762">
        <ele>132.05</ele>
        <time>2019-07-14T13:16:46.000Z</time>
      </trkpt>
      <trkpt lat="48.92267" lon="1.81789">
        <ele>132.11</ele>
        <time>2019-07-14T13:17:02.000Z</time>
      </trkpt>
      <trkpt lat="48.92276" lon="1.81813">
        <ele>131.87</ele>
        <time>2019-07-14T13:17:16.000Z</time>
      </trkpt>
      <trkpt lat="48.92287" lon="1.81836">
        <ele>131.47</ele>
        <time>2019-07-14T13:17:30.000Z</time>
      </trkpt>
      <trkpt lat="48.92296" lon="1.81862">
        <ele>130.07</ele>
        <time>2019-07-14T13:17:47.000Z</time>
      </trkpt>
      <trkpt lat="48.92307" lon="1.81884">
        <ele>129.09</ele>
        <time>2019-07-14T13:18:03.000Z</time>
      </trkpt>
      <trkpt lat="48.92317" lon="1.81907">
        <ele>128.42</ele>
        <time>2019-07-14T13:18:17.000Z</time>
      </trkpt>
      <trkpt lat="48.92327" lon="1.81931">
        <ele>127.78</ele>
        <time>2019-07-14T13:18:33.000Z</time>
      </trkpt>
      <trkpt lat="48.9234" lon="1.81951">
        <ele>127.02</ele>
        <time>2019-07-14T13:18:45.000Z</time>
      </trkpt>
      <trkpt lat="48.9235" lon="1.81974">
        <ele>126.9</ele>
        <time>2019-07-14T13:19:01.000Z</time>
      </trkpt>
      <trkpt lat="48.92361" lon="1.81998">
        <ele>127.11</ele>
        <time>2019-07-14T13:19:16.000Z</time>
      </trkpt>
      <trkpt lat="48.92372" lon="1.82022">
        <ele>127.1</ele>
        <time>2019-07-14T13:19:31.000Z</time>
      </trkpt>
      <trkpt lat="48.92381" lon="1.82048">
        <ele>127.61</ele>
        <time>2019-07-14T13:19:47.000Z</time>
      </trkpt>
      <trkpt lat="48.92392" lon="1.82072">
        <ele>127.92</ele>
        <time>2019-07-14T13:20:00.000Z</time>
      </trkpt>
      <trkpt lat="48.92402" lon="1.82096">
        <ele>128.61</ele>
        <time>2019-07-14T13:20:16.000Z</time>
      </trkpt>
      <trkpt lat="48.92412" lon="1.82121">
        <ele>128.87</ele>
        <time>2019-07-14T13:20:31.000Z</time>
      </trkpt>
      <trkpt lat="48.92422" lon="1.82147">
        <ele>128.02</ele>
        <time>2019-07-14T13:20:47.000Z</time>
      </trkpt>
      <trkpt lat="48.92433" lon="1.82169">
        <ele>127.67</ele>
        <time>2019-07-14T13:20:59.000Z</time>
      </trkpt>
      <trkpt lat="48.92443" lon="1.82192">
        <ele>127.12</ele>
        <time>2019-07-14T13:21:13.000Z</time>
      </trkpt>
      <trkpt lat="48.92453" lon="1.82216">
        <ele>127.27</ele>
        <time>2019-07-14T13:21:29.000Z</time>
      </trkpt>
      <trkpt lat="48.9246" lon="1.82242">
        <ele>128.89</ele>
        <time>2019-07-14T13:21:43.000Z</time>
      </trkpt>
      <trkpt lat="48.92468" lon="1.82267">
        <ele>130.33</ele>
        <time>2019-07-14T13:21:56.000Z</time>
      </trkpt>
      <trkpt lat="48.92476" lon="1.82293">
        <ele>131.64</ele>
        <time>2019-07-14T13:22:11.000Z</time>
      </trkpt>
      <trkpt lat="48.92483" lon="1.82319">
        <ele>133.32</ele>
        <time>2019-07-14T13:22:25.000Z</time>
      </trkpt>
      <trkpt lat="48.92486" lon="1.82347">
        <ele>133.84</ele>
        <time>2019-07-14T13:22:40.000Z</time>
      </trkpt>
      <trkpt lat="48.9249" lon="1.82375">
        <ele>133.48</ele>
        <time>2019-07-14T13:22:54.000Z</time>
      </trkpt>
      <trkpt lat="48.92494" lon="1.82403">
        <ele>133.09</ele>
        <time>2019-07-14T13:23:08.000Z</time>
      </trkpt>
      <trkpt lat="48.92497" lon="1.82431">
        <ele>131.47</ele>
        <time>2019-07-14T13:23:23.000Z</time>
      </trkpt>
      <trkpt lat="48.92501" lon="1.82458">
        <ele>129.24</ele>
        <time>2019-07-14T13:23:38.000Z</time>
      </trkpt>
      <trkpt lat="48.92509" lon="1.82484">
        <ele>127.51</ele>
        <time>2019-07-14T13:23:52.000Z</time>
      </trkpt>
      <trkpt lat="48.92515" lon="1.8251">
        <ele>126.64</ele>
        <time>2019-07-14T13:24:07.000Z</time>
      </trkpt>
      <trkpt lat="48.92521" lon="1.82537">
        <ele>125.97</ele>
        <time>2019-07-14T13:24:21.000Z</time>
      </trkpt>
      <trkpt lat="48.92527" lon="1.82563">
        <ele>125.34</ele>
        <time>2019-07-14T13:24:35.000Z</time>
      </trkpt>
      <trkpt lat="48.92537" lon="1.82588">
        <ele>124.6</ele>
        <time>2019-07-14T13:24:49.000Z</time>
      </trkpt>
      <trkpt lat="48.92545" lon="1.82612">
        <ele>123.73</ele>
        <time>2019-07-14T13:25:03.000Z</time>
      </trkpt>
      <trkpt lat="48.92554" lon="1.82637">
        <ele>123.32</ele>
        <time>2019-07-14T13:25:16.000Z</time>
      </trkpt>
      <trkpt lat="48.92562" lon="1.82662">
        <ele>122.91</ele>
        <time>2019-07-14T13:25:32.000Z</time>
      </trkpt>
      <trkpt lat="48.92571" lon="1.82688">
        <ele>123.07</ele>
        <time>2019-07-14T13:25:48.000Z</time>
      </trkpt>
      <trkpt lat="48.92583" lon="1.8271">
        <ele>122.5</ele>
        <time>2019-07-14T13:26:01.000Z</time>
      </trkpt>
      <trkpt lat="48.92594" lon="1.82733">
        <ele>121.77</ele>
        <time>2019-07-14T13:26:17.000Z</time>
      </trkpt>
      <trkpt lat="48.92605" lon="1.82755">
        <ele>120.91</ele>
        <time>2019-07-14T13:26:30.000Z</time>
      </trkpt>
      <trkpt lat="48.92616" lon="1.82778">
        <ele>120.35</ele>
        <time>2019-07-14T13:26:43.000Z</time>
      </trkpt>
      <trkpt lat="48.92628" lon="1.828">
        <ele>120.1</ele>
        <time>2019-07-14T13:26:56.000Z</time>
      </trkpt>
      <trkpt lat="48.92637" lon="1.82824">
        <ele>120.34</ele>
        <time>2019-07-14T13:27:10.000Z</time>
      </trkpt>
      <trkpt lat="48.92648" lon="1.82849">
        <ele>119.65</ele>
        <time>2019-07-14T13:27:24.000Z</time>
      </trkpt>
      <trkpt lat="48.92658" lon="1.82872">
        <ele>119.51</ele>
        <time>2019-07-14T13:27:41.000Z</time>
      </trkpt>
      <trkpt lat="48.92669" lon="1.82895">
        <ele>119.63</ele>
        <time>2019-07-14T13:27:54.000Z</time>
      </trkpt>
      <trkpt lat="48.92683" lon="1.82915">
        <ele>119.94</ele>
        <time>2019-07-14T13:28:26.000Z</time>
      </trkpt>
      <trkpt lat="48.92692" lon="1.8294">
        <ele>120.32</ele>
        <time>2019-07-14T13:28:43.000Z</time>
      </trkpt>
      <trkpt lat="48.92691" lon="1.82969">
        <ele>120.02</ele>
        <time>2019-07-14T13:28:58.000Z</time>
      </trkpt>
      <trkpt lat="48.92693" lon="1.82996">
        <ele>119.27</ele>
        <time>2019-07-14T13:29:13.999Z</time>
      </trkpt>
      <trkpt lat="48.92693" lon="1.83025">
        <ele>116.96</ele>
        <time>2019-07-14T13:29:28.999Z</time>
      </trkpt>
      <trkpt lat="48.92697" lon="1.83052">
        <ele>113.32</ele>
        <time>2019-07-14T13:29:49.999Z</time>
      </trkpt>
      <trkpt lat="48.927" lon="1.8308">
        <ele>110.09</ele>
        <time>2019-07-14T13:30:15.999Z</time>
      </trkpt>
      <trkpt lat="48.92709" lon="1.83106">
        <ele>105.68</ele>
        <time>2019-07-14T13:30:59.999Z</time>
      </trkpt>
      <trkpt lat="48.92713" lon="1.83133">
        <ele>103.1</ele>
        <time>2019-07-14T13:31:15.999Z</time>
      </trkpt>
      <trkpt lat="48.92719" lon="1.83159">
        <ele>100.13</ele>
        <time>2019-07-14T13:31:35.999Z</time>
      </trkpt>
      <trkpt lat="48.92725" lon="1.83187">
        <ele>98.7</ele>
        <time>2019-07-14T13:31:51.999Z</time>
      </trkpt>
      <trkpt lat="48.9273" lon="1.83215">
        <ele>98.84</ele>
        <time>2019-07-14T13:32:07.999Z</time>
      </trkpt>
      <trkpt lat="48.92736" lon="1.83241">
        <ele>99.14</ele>
        <time>2019-07-14T13:32:21.999Z</time>
      </trkpt>
      <trkpt lat="48.92741" lon="1.83269">
        <ele>97.72</ele>
        <time>2019-07-14T13:32:40.999Z</time>
      </trkpt>
      <trkpt lat="48.9275" lon="1.83293">
        <ele>94.51</ele>
        <time>2019-07-14T13:32:55.999Z</time>
      </trkpt>
      <trkpt lat="48.92758" lon="1.83318">
        <ele>91.02</ele>
        <time>2019-07-14T13:33:14.999Z</time>
      </trkpt>
      <trkpt lat="48.92769" lon="1.83341">
        <ele>89.01</ele>
        <time>2019-07-14T13:33:27.999Z</time>
      </trkpt>
      <trkpt lat="48.92781" lon="1.83363">
        <ele>87.4</ele>
        <time>2019-07-14T13:33:40.999Z</time>
      </trkpt>
      <trkpt lat="48.92788" lon="1.8339">
        <ele>84.74</ele>
        <time>2019-07-14T13:33:59.999Z</time>
      </trkpt>
      <trkpt lat="48.92794" lon="1.83416">
        <ele>80.71</ele>
        <time>2019-07-14T13:34:18.999Z</time>
      </trkpt>
      <trkpt lat="48.92802" lon="1.83442">
        <ele>76.37</ele>
        <time>2019-07-14T13:34:32.999Z</time>
      </trkpt>
      <trkpt lat="48.9281" lon="1.83467">
        <ele>74.08</ele>
        <time>2019-07-14T13:34:41.999Z</time>
      </trkpt>
      <trkpt lat="48.9282" lon="1.83491">
        <ele>67.97</ele>
        <time>2019-07-14T13:35:01.999Z</time>
      </trkpt>
      <trkpt lat="48.92831" lon="1.83514">
        <ele>65.87</ele>
        <time>2019-07-14T13:35:12.999Z</time>
      </trkpt>
      <trkpt lat="48.92835" lon="1.83541">
        <ele>64.13</ele>
        <time>2019-07-14T13:35:29.999Z</time>
      </trkpt>
      <trkpt lat="48.92842" lon="1.83567">
        <ele>62.17</ele>
        <time>2019-07-14T13:35:42.999Z</time>
      </trkpt>
      <trkpt lat="48.92848" lon="1.83593">
        <ele>61.62</ele>
        <time>2019-07-14T13:35:55.999Z</time>
      </trkpt>
      <trkpt lat="48.92857" lon="1.83616">
        <ele>61.59</ele>
        <time>2019-07-14T13:36:09.999Z</time>
      </trkpt>
      <trkpt lat="48.92871" lon="1.83638">
        <ele>62.11</ele>
        <time>2019-07-14T13:36:29.999Z</time>
      </trkpt>
      <trkpt lat="48.92886" lon="1.83653">
        <ele>61.64</ele>
        <time>2019-07-14T13:36:44.999Z</time>
      </trkpt>
      <trkpt lat="48.92902" lon="1.83664">
        <ele>59.94</ele>
        <time>2019-07-14T13:36:59.999Z</time>
      </trkpt>
      <trkpt lat="48.92919" lon="1.83679">
        <ele>57.1</ele>
        <time>2019-07-14T13:37:11.999Z</time>
      </trkpt>
      <trkpt lat="48.92933" lon="1.83699">
        <ele>55.72</ele>
        <time>2019-07-14T13:37:22.999Z</time>
      </trkpt>
      <trkpt lat="48.92943" lon="1.83722">
        <ele>55.29</ele>
        <time>2019-07-14T13:37:38.999Z</time>
      </trkpt>
      <trkpt lat="48.92952" lon="1.83746">
        <ele>54.54</ele>
        <time>2019-07-14T13:37:53.999Z</time>
      </trkpt>
      <trkpt lat="48.9296" lon="1.83772">
        <ele>54.19</ele>
        <time>2019-07-14T13:38:06.999Z</time>
      </trkpt>
      <trkpt lat="48.92967" lon="1.83797">
        <ele>53.15</ele>
        <time>2019-07-14T13:38:22.999Z</time>
      </trkpt>
      <trkpt lat="48.92975" lon="1.83823">
        <ele>51.91</ele>
        <time>2019-07-14T13:38:36.999Z</time>
      </trkpt>
      <trkpt lat="48.92981" lon="1.83849">
        <ele>49.16</ele>
        <time>2019-07-14T13:39:06.999Z</time>
      </trkpt>
      <trkpt lat="48.92968" lon="1.83869">
        <ele>47.33</ele>
        <time>2019-07-14T13:39:25.999Z</time>
      </trkpt>
      <trkpt lat="48.92949" lon="1.83877">
        <ele>45.65</ele>
        <time>2019-07-14T13:39:41.999Z</time>
      </trkpt>
      <trkpt lat="48.92932" lon="1.83886">
        <ele>45.1</ele>
        <time>2019-07-14T13:39:54.999Z</time>
      </trkpt>
      <trkpt lat="48.92915" lon="1.83895">
        <ele>44.19</ele>
        <time>2019-07-14T13:40:08.999Z</time>
      </trkpt>
      <trkpt lat="48.92898" lon="1.83908">
        <ele>41.98</ele>
        <time>2019-07-14T13:40:23.999Z</time>
      </trkpt>
      <trkpt lat="48.92885" lon="1.83928">
        <ele>40.35</ele>
        <time>2019-07-14T13:40:35.999Z</time>
      </trkpt>
      <trkpt lat="48.92879" lon="1.83954">
        <ele>38.84</ele>
        <time>2019-07-14T13:40:51.999Z</time>
      </trkpt>
      <trkpt lat="48.92883" lon="1.83981">
        <ele>36.47</ele>
        <time>2019-07-14T13:41:07.999Z</time>
      </trkpt>
      <trkpt lat="48.92892" lon="1.84005">
        <ele>35.1</ele>
        <time>2019-07-14T13:41:19.999Z</time>
      </trkpt>
      <trkpt lat="48.929" lon="1.84033">
        <ele>33.5</ele>
        <time>2019-07-14T13:41:34.999Z</time>
      </trkpt>
      <trkpt lat="48.92911" lon="1.84058">
        <ele>32.28</ele>
        <time>2019-07-14T13:41:47.999Z</time>
      </trkpt>
      <trkpt lat="48.92922" lon="1.84081">
        <ele>32.7</ele>
        <time>2019-07-14T13:42:02.999Z</time>
      </trkpt>
      <trkpt lat="48.92926" lon="1.84108">
        <ele>32.97</ele>
        <time>2019-07-14T13:42:20.999Z</time>
      </trkpt>
      <trkpt lat="48.92936" lon="1.84133">
        <ele>32.71</ele>
        <time>2019-07-14T13:42:36.999Z</time>
      </trkpt>
      <trkpt lat="48.92942" lon="1.84159">
        <ele>32.3</ele>
        <time>2019-07-14T13:42:50.999Z</time>
      </trkpt>
      <trkpt lat="48.92933" lon="1.84183">
        <ele>32.38</ele>
        <time>2019-07-14T13:43:09.999Z</time>
      </trkpt>
      <trkpt lat="48.92926" lon="1.84209">
        <ele>32.69</ele>
        <time>2019-07-14T13:43:25.999Z</time>
      </trkpt>
      <trkpt lat="48.92924" lon="1.84236">
        <ele>33.16</ele>
        <time>2019-07-14T13:43:38.999Z</time>
      </trkpt>
      <trkpt lat="48.92921" lon="1.84264">
        <ele>33.76</ele>
        <time>2019-07-14T13:43:54.999Z</time>
      </trkpt>
      <trkpt lat="48.92908" lon="1.84283">
        <ele>33.94</ele>
        <time>2019-07-14T13:44:12.000Z</time>
      </trkpt>
      <trkpt lat="48.92893" lon="1.84299">
        <ele>33.53</ele>
        <time>2019-07-14T13:44:26.000Z</time>
      </trkpt>
      <trkpt lat="48.92886" lon="1.84325">
        <ele>32.56</ele>
        <time>2019-07-14T13:44:40.000Z</time>
      </trkpt>
      <trkpt lat="48.92889" lon="1.84353">
        <ele>32.35</ele>
        <time>2019-07-14T13:44:53.000Z</time>
      </trkpt>
      <trkpt lat="48.92895" lon="1.84379">
        <ele>32.47</ele>
        <time>2019-07-14T13:45:08.000Z</time>
      </trkpt>
      <trkpt lat="48.92903" lon="1.84406">
        <ele>32.56</ele>
        <time>2019-07-14T13:45:23.000Z</time>
      </trkpt>
      <trkpt lat="48.92906" lon="1.84434">
        <ele>33.14</ele>
        <time>2019-07-14T13:45:39.000Z</time>
      </trkpt>
      <trkpt lat="48.92907" lon="1.84462">
        <ele>33.52</ele>
        <time>2019-07-14T13:45:54.000Z</time>
      </trkpt>
      <trkpt lat="48.92912" lon="1.84489">
        <ele>34.66</ele>
        <time>2019-07-14T13:46:39.000Z</time>
      </trkpt>
      <trkpt lat="48.9293" lon="1.84484">
        <ele>34.85</ele>
        <time>2019-07-14T13:47:00.000Z</time>
      </trkpt>
      <trkpt lat="48.92949" lon="1.84479">
        <ele>35.48</ele>
        <time>2019-07-14T13:47:15.000Z</time>
      </trkpt>
      <trkpt lat="48.92966" lon="1.8447">
        <ele>35.54</ele>
        <time>2019-07-14T13:47:27.000Z</time>
      </trkpt>
      <trkpt lat="48.92984" lon="1.84464">
        <ele>34.85</ele>
        <time>2019-07-14T13:47:43.000Z</time>
      </trkpt>
      <trkpt lat="48.93002" lon="1.84458">
        <ele>34.14</ele>
        <time>2019-07-14T13:47:56.000Z</time>
      </trkpt>
      <trkpt lat="48.9302" lon="1.84449">
        <ele>34.2</ele>
        <time>2019-07-14T13:48:11.000Z</time>
      </trkpt>
      <trkpt lat="48.93038" lon="1.84448">
        <ele>34.68</ele>
        <time>2019-07-14T13:48:24.000Z</time>
      </trkpt>
      <trkpt lat="48.93057" lon="1.84446">
        <ele>35.08</ele>
        <time>2019-07-14T13:48:37.000Z</time>
      </trkpt>
      <trkpt lat="48.93076" lon="1.84443">
        <ele>34.34</ele>
        <time>2019-07-14T13:48:52.000Z</time>
      </trkpt>
      <trkpt lat="48.93094" lon="1.84441">
        <ele>33.3</ele>
        <time>2019-07-14T13:49:09.000Z</time>
      </trkpt>
      <trkpt lat="48.93112" lon="1.84439">
        <ele>34.16</ele>
        <time>2019-07-14T13:49:26.000Z</time>
      </trkpt>
      <trkpt lat="48.9313" lon="1.84445">
        <ele>33.63</ele>
        <time>2019-07-14T13:49:43.000Z</time>
      </trkpt>
      <trkpt lat="48.93146" lon="1.8446">
        <ele>34.16</ele>
        <time>2019-07-14T13:49:58.000Z</time>
      </trkpt>
      <trkpt lat="48.93162" lon="1.84473">
        <ele>35.36</ele>
        <time>2019-07-14T13:50:11.000Z</time>
      </trkpt>
      <trkpt lat="48.93183" lon="1.84467">
        <ele>38.33</ele>
        <time>2019-07-14T13:50:31.000Z</time>
      </trkpt>
      <trkpt lat="48.93201" lon="1.8446">
        <ele>37.77</ele>
        <time>2019-07-14T13:50:50.000Z</time>
      </trkpt>
      <trkpt lat="48.93219" lon="1.84452">
        <ele>37.26</ele>
        <time>2019-07-14T13:51:01.000Z</time>
      </trkpt>
      <trkpt lat="48.93235" lon="1.84438">
        <ele>36.39</ele>
        <time>2019-07-14T13:51:18.000Z</time>
      </trkpt>
      <trkpt lat="48.93252" lon="1.84425">
        <ele>35.78</ele>
        <time>2019-07-14T13:51:32.000Z</time>
      </trkpt>
      <trkpt lat="48.93268" lon="1.84412">
        <ele>34.94</ele>
        <time>2019-07-14T13:51:45.000Z</time>
      </trkpt>
      <trkpt lat="48.93285" lon="1.84399">
        <ele>34.62</ele>
        <time>2019-07-14T13:52:00.000Z</time>
      </trkpt>
      <trkpt lat="48.93302" lon="1.8439">
        <ele>34.17</ele>
        <time>2019-07-14T13:52:14.000Z</time>
      </trkpt>
      <trkpt lat="48.9332" lon="1.84384">
        <ele>34.4</ele>
        <time>2019-07-14T13:52:29.000Z</time>
      </trkpt>
      <trkpt lat="48.93337" lon="1.84374">
        <ele>34.85</ele>
        <time>2019-07-14T13:52:40.000Z</time>
      </trkpt>
      <trkpt lat="48.93354" lon="1.84365">
        <ele>34.22</ele>
        <time>2019-07-14T13:52:59.000Z</time>
      </trkpt>
      <trkpt lat="48.93372" lon="1.84356">
        <ele>33.75</ele>
        <time>2019-07-14T13:53:12.000Z</time>
      </trkpt>
      <trkpt lat="48.93391" lon="1.8435">
        <ele>33.62</ele>
        <time>2019-07-14T13:53:24.000Z</time>
      </trkpt>
      <trkpt lat="48.93408" lon="1.8434">
        <ele>33.79</ele>
        <time>2019-07-14T13:53:38.000Z</time>
      </trkpt>
      <trkpt lat="48.93425" lon="1.84333">
        <ele>33.72</ele>
        <time>2019-07-14T13:53:52.000Z</time>
      </trkpt>
      <trkpt lat="48.93443" lon="1.84324">
        <ele>33.26</ele>
        <time>2019-07-14T13:54:06.000Z</time>
      </trkpt>
      <trkpt lat="48.9346" lon="1.84314">
        <ele>33.03</ele>
        <time>2019-07-14T13:54:20.000Z</time>
      </trkpt>
      <trkpt lat="48.93478" lon="1.84306">
        <ele>32.79</ele>
        <time>2019-07-14T13:54:34.000Z</time>
      </trkpt>
      <trkpt lat="48.93495" lon="1.84295">
        <ele>33.02</ele>
        <time>2019-07-14T13:54:47.000Z</time>
      </trkpt>
      <trkpt lat="48.93512" lon="1.84279">
        <ele>31.6</ele>
        <time>2019-07-14T13:55:12.000Z</time>
      </trkpt>
      <trkpt lat="48.93529" lon="1.84268">
        <ele>31.04</ele>
        <time>2019-07-14T13:55:24.000Z</time>
      </trkpt>
      <trkpt lat="48.93546" lon="1.84256">
        <ele>31.21</ele>
        <time>2019-07-14T13:55:35.000Z</time>
      </trkpt>
      <trkpt lat="48.93563" lon="1.84245">
        <ele>31.98</ele>
        <time>2019-07-14T13:55:48.000Z</time>
      </trkpt>
      <trkpt lat="48.93578" lon="1.84229">
        <ele>32.71</ele>
        <time>2019-07-14T13:56:07.000Z</time>
      </trkpt>
      <trkpt lat="48.93588" lon="1.84205">
        <ele>31.96</ele>
        <time>2019-07-14T13:56:22.000Z</time>
      </trkpt>
      <trkpt lat="48.93601" lon="1.84184">
        <ele>31.21</ele>
        <time>2019-07-14T13:56:38.000Z</time>
      </trkpt>
      <trkpt lat="48.93615" lon="1.84167">
        <ele>31.05</ele>
        <time>2019-07-14T13:56:50.000Z</time>
      </trkpt>
      <trkpt lat="48.93629" lon="1.84146">
        <ele>31.11</ele>
        <time>2019-07-14T13:57:04.000Z</time>
      </trkpt>
      <trkpt lat="48.93641" lon="1.84125">
        <ele>31.94</ele>
        <time>2019-07-14T13:57:21.000Z</time>
      </trkpt>
      <trkpt lat="48.93656" lon="1.84107">
        <ele>32.57</ele>
        <time>2019-07-14T13:57:35.000Z</time>
      </trkpt>
      <trkpt lat="48.93669" lon="1.84088">
        <ele>33.13</ele>
        <time>2019-07-14T13:57:46.000Z</time>
      </trkpt>
      <trkpt lat="48.93682" lon="1.84067">
        <ele>33.68</ele>
        <time>2019-07-14T13:58:02.000Z</time>
      </trkpt>
      <trkpt lat="48.93696" lon="1.84043">
        <ele>32.73</ele>
        <time>2019-07-14T13:58:15.000Z</time>
      </trkpt>
      <trkpt lat="48.93707" lon="1.84019">
        <ele>33.12</ele>
        <time>2019-07-14T13:58:31.000Z</time>
      </trkpt>
      <trkpt lat="48.93723" lon="1.84005">
        <ele>33.87</ele>
        <time>2019-07-14T13:58:44.000Z</time>
      </trkpt>
      <trkpt lat="48.93741" lon="1.84002">
        <ele>33.3</ele>
        <time>2019-07-14T13:59:02.000Z</time>
      </trkpt>
      <trkpt lat="48.9376" lon="1.84003">
        <ele>32.65</ele>
        <time>2019-07-14T13:59:16.999Z</time>
      </trkpt>
      <trkpt lat="48.93777" lon="1.84015">
        <ele>32.27</ele>
        <time>2019-07-14T13:59:31.999Z</time>
      </trkpt>
      <trkpt lat="48.93793" lon="1.84032">
        <ele>32.97</ele>
        <time>2019-07-14T13:59:48.999Z</time>
      </trkpt>
      <trkpt lat="48.93804" lon="1.84054">
        <ele>33.29</ele>
        <time>2019-07-14T14:00:02.999Z</time>
      </trkpt>
      <trkpt lat="48.93811" lon="1.8408">
        <ele>35.21</ele>
        <time>2019-07-14T14:00:18.999Z</time>
      </trkpt>
      <trkpt lat="48.93828" lon="1.84069">
        <ele>36.31</ele>
        <time>2019-07-14T14:00:44.999Z</time>
      </trkpt>
      <trkpt lat="48.93846" lon="1.84064">
        <ele>36.62</ele>
        <time>2019-07-14T14:00:58.999Z</time>
      </trkpt>
      <trkpt lat="48.93865" lon="1.84068">
        <ele>36.75</ele>
        <time>2019-07-14T14:01:30.999Z</time>
      </trkpt>
      <trkpt lat="48.93883" lon="1.84061">
        <ele>36.98</ele>
        <time>2019-07-14T14:01:44.999Z</time>
      </trkpt>
    </trkseg>
  </trk>
</gpx>